• Join FlightAware (Why Join?)
  • Login
  • US Flag 
04:38PM EDT


 

Airport Tracker/Info


-or-


 

Live Flight TrackerFlight Track Log ✈ CES2153 ✈ 22-Jan-2014 ✈ ZLXY / XIY - ZSSS / SHA

Flight Track Log - Related Links

Times and Time Zones

All times are in EST time to prevent confusion due to time zone crossing. See the CES2153 flight status page for this flight to view local times or setup timezone preferences in your user account.

Time Position Orientation Groundspeed Altitude Reporting Facility
EST Latitude Longitude Course Direction KTS MPH feet Rate Location/Type
09:50PM 34.3698 109.1359 104° East  Level Estimated
09:51PM 34.3681 109.1444 104° East  Level Estimated
09:52PM 34.3664 109.1530 104° East  Level Estimated
09:53PM 34.3646 109.1615 104° East  Level Estimated
09:54PM 34.3629 109.1700 104° East  Level Estimated
09:55PM 34.3612 109.1786 104° East  Level Estimated
09:56PM 34.3595 109.1871 104° East  Level Estimated
09:57PM 34.3577 109.1956 104° East  Level Estimated
09:58PM 34.3560 109.2042 104° East  Level Estimated
09:59PM 34.3542 109.2127 104° East  Level Estimated
10:00PM 34.3525 109.2212 104° East  Level Estimated
10:01PM 34.3508 109.2298 104° East  Level Estimated
10:02PM 34.3490 109.2383 104° East  Level Estimated
10:03PM 34.3473 109.2468 104° East  Level Estimated
10:04PM 34.3455 109.2553 104° East  Level Estimated
10:05PM 34.3438 109.2639 104° East  Level Estimated
10:06PM 34.3421 109.2724 104° East  Level Estimated
10:07PM 34.3403 109.2809 104° East  Level Estimated
10:08PM 34.3386 109.2895 104° East  Level Estimated
10:09PM 34.3368 109.2980 104° East  Level Estimated
10:10PM 34.3351 109.3065 104° East  Level Estimated
10:11PM 34.3334 109.3150 104° East  Level Estimated
10:12PM 34.3316 109.3236 104° East  Level Estimated
10:13PM 34.3299 109.3321 104° East  Level Estimated
10:14PM 34.3281 109.3406 104° East  Level Estimated
10:15PM 34.3264 109.3491 104° East  Level Estimated
10:16PM 34.3246 109.3577 104° East  Level Estimated
10:17PM 34.3229 109.3662 104° East  Level Estimated
10:18PM 34.3211 109.3747 104° East  Level Estimated
10:19PM 34.3194 109.3832 104° East  Level Estimated
10:20PM 34.3176 109.3917 104° East  Level Estimated
10:21PM 34.3159 109.4003 104° East  Level Estimated
10:22PM 34.3141 109.4088 104° East  Level Estimated
10:23PM 34.3124 109.4173 104° East  Level Estimated
10:24PM 34.3106 109.4258 104° East  Level Estimated
10:25PM 34.3089 109.4343 104° East  Level Estimated
10:26PM 34.3071 109.4429 104° East  Level Estimated
10:27PM 34.3054 109.4514 104° East  Level Estimated
10:28PM 34.3036 109.4599 104° East  Level Estimated
10:29PM 34.3019 109.4684 104° East  Level Estimated
10:30PM 34.3001 109.4769 104° East  Level Estimated
10:31PM 34.2984 109.4855 104° East  Level Estimated
10:32PM 34.2966 109.4940 104° East  Level Estimated
10:33PM 34.2949 109.5025 104° East  Level Estimated
10:34PM 34.2931 109.5110 104° East  Level Estimated
10:35PM 34.2914 109.5195 104° East  Level Estimated
10:36PM 34.2896 109.5281 104° East  Level Estimated
10:37PM 34.2878 109.5366 104° East  Level Estimated
10:38PM 34.2861 109.5451 104° East  Level Estimated
10:38PM 31.3684 121.0563 104° East 270 311 7,000  Level FlightAware ADS-B (ZSSS / SHA)
10:39PM 34.2843 109.5536 104° East  Level Estimated
10:40PM 34.2826 109.5621 104° East  Level Estimated
10:40PM 31.3385 121.1546 110° East 230 265 6,400  Level FlightAware ADS-B (ZSSS / SHA)
10:40PM 31.3318 121.1765 110° East 229 264 6,400  Level FlightAware ADS-B (ZSSS / SHA)
10:40PM 31.3255 121.1974 110° East 229 264 6,400  Level FlightAware ADS-B (ZSSS / SHA)
10:41PM 31.3109 121.2194 128° Southeast 228 262 6,400  Level FlightAware ADS-B (ZSSS / SHA)
10:41PM 31.2896 121.2239 170° South 147 169 6,400  Level FlightAware ADS-B (ZSSS / SHA)
10:41PM 31.2685 121.2240 180° South 290 334 6,400  Level FlightAware ADS-B (ZSSS / SHA)
10:42PM 31.2475 121.2240 180° South 290 334 6,400  Level FlightAware ADS-B (ZSSS / SHA)
10:42PM 31.2257 121.2247 179° South 232 267 6,400 -180 Level FlightAware ADS-B (ZSSS / SHA)
10:42PM 31.2106 121.2254 178° South 224 258 6,300 -660 Descending FlightAware ADS-B (ZSSS / SHA)
10:43PM 31.1945 121.2262 178° South 232 267 6,100 -1,200 Descending FlightAware ADS-B (ZSSS / SHA)
10:43PM 31.1732 121.2329 165° South 227 261 5,600 -1,080 Descending FlightAware ADS-B (ZSSS / SHA)
10:43PM 31.1615 121.2522 125° Southeast 223 257 5,400 -360 Descending FlightAware ADS-B (ZSSS / SHA)
10:44PM 31.1543 121.2738 111° Southeast 230 265 5,400  Level FlightAware ADS-B (ZSSS / SHA)
10:44PM 31.1469 121.2957 111° Southeast 246 283 5,400  Level FlightAware ADS-B (ZSSS / SHA)
10:44PM 31.1397 121.3179 111° Southeast 233 268 5,400  Level FlightAware ADS-B (ZSSS / SHA)
10:45PM 31.1329 121.3395 110° East 260 299 5,400  Level FlightAware ADS-B (ZSSS / SHA)
10:45PM 31.1258 121.3612 111° Southeast 213 245 5,400  Level FlightAware ADS-B (ZSSS / SHA)
10:45PM 31.1186 121.3829 111° Southeast 219 252 5,400  Level FlightAware ADS-B (ZSSS / SHA)
10:46PM 31.1112 121.4050 111° Southeast 217 250 5,400  Level FlightAware ADS-B (ZSSS / SHA)
10:46PM 31.1038 121.4271 111° Southeast 212 244 5,400  Level FlightAware ADS-B (ZSSS / SHA)
10:46PM 31.0965 121.4489 112° Southeast 219 252 5,400  Level FlightAware ADS-B (ZSSS / SHA)
10:47PM 31.0911 121.4653 111° Southeast 216 249 5,400  Level FlightAware ADS-B (ZSSS / SHA)
10:47PM 31.0788 121.4872 123° Southeast 216 249 5,400  Level FlightAware ADS-B (ZSSS / SHA)
10:48PM 31.0163 121.5026 168° South 211 243 5,400 -180 Level FlightAware ADS-B (ZSSS / SHA)
10:48PM 31.0015 121.5050 172° South 256 295 5,200 -840 Descending FlightAware ADS-B (ZSSS / SHA)
10:48PM 30.9945 121.5060 173° South 256 295 5,100  Descending FlightAware ADS-B (ZSSS / SHA)
10:51PM 31.0077 121.4951 324° Northwest  Level Estimated
10:52PM 31.0136 121.4901 324° Northwest  Level Estimated
10:53PM 31.0195 121.4852 324° Northwest  Level Estimated
10:54PM 31.0254 121.4803 324° Northwest  Level Estimated
10:55PM 31.0313 121.4754 324° Northwest  Level Estimated
10:56PM 31.0372 121.4705 324° Northwest  Level Estimated
10:57PM 31.0431 121.4655 324° Northwest  Level Estimated
10:58PM 31.0490 121.4606 324° Northwest  Level Estimated
10:59PM 31.0549 121.4557 324° Northwest  Level Estimated
11:00PM 31.0608 121.4508 324° Northwest  Level Estimated
11:01PM 31.0667 121.4459 324° Northwest  Level Estimated
11:02PM 31.0726 121.4409 324° Northwest  Level Estimated
11:03PM 31.0785 121.4360 324° Northwest  Level Estimated
11:04PM 31.0844 121.4311 324° Northwest  Level Estimated
11:05PM 31.0903 121.4262 324° Northwest  Level Estimated
11:06PM 31.0962 121.4213 324° Northwest  Level Estimated
11:07PM 31.1021 121.4163 324° Northwest  Level Estimated
11:08PM 31.1080 121.4114 324° Northwest  Level Estimated
11:09PM 31.1139 121.4065 324° Northwest  Level Estimated
11:10PM 31.1198 121.4016 324° Northwest  Level Estimated
11:11PM 31.1257 121.3966 324° Northwest  Level Estimated
11:12PM 31.1316 121.3917 324° Northwest  Level Estimated
11:13PM 31.1375 121.3868 324° Northwest  Level Estimated
11:14PM 31.1434 121.3819 324° Northwest  Level Estimated
11:15PM 31.1493 121.3769 324° Northwest  Level Estimated
11:16PM 31.1552 121.3720 324° Northwest  Level Estimated
11:17PM 31.1611 121.3671 324° Northwest  Level Estimated
11:18PM 31.1670 121.3621 324° Northwest  Level Estimated
11:19PM 31.1729 121.3572 324° Northwest  Level Estimated
11:20PM 31.1788 121.3523 324° Northwest  Level Estimated
11:21PM 31.1847 121.3473 324° Northwest  Level Estimated
11:22PM 31.1906 121.3424 324° Northwest  Level Estimated
11:23PM 31.1965 121.3375 324° Northwest  Level Estimated
11:24PM 31.1979 121.3363 325° Northwest  Level Estimated
11:25PM 31.1979 121.3363 190° South  Level Estimated
11:26PM 31.1979 121.3363 350° North  Level Estimated
11:27PM 31.1979 121.3363 350° North  Level Estimated
11:28PM 31.1979 121.3363 350° North  Level Estimated
11:29PM 31.1979 121.3363 350° North  Level Estimated
11:30PM 31.1979 121.3363 350° North  Level Estimated
11:31PM 31.1979 121.3363 350° North  Level Estimated
11:32PM 31.1979 121.3363 350° North  Level Estimated
11:33PM 31.1979 121.3363 350° North  Level Estimated
11:34PM 31.1979 121.3363 350° North  Level Estimated
11:35PM 31.1979 121.3363 350° North  Level Estimated
11:36PM 31.1979 121.3363 350° North  Level Estimated
11:37PM 31.1979 121.3363 350° North  Level Estimated
11:38PM 31.1979 121.3363 350° North  Level Estimated
11:39PM 31.1979 121.3363 350° North  Level Estimated
11:40PM 31.1979 121.3363 350° North  Level Estimated
11:41PM 31.1979 121.3363 350° North  Level Estimated
11:42PM 31.1979 121.3363 350° North  Level Estimated
11:43PM 31.1979 121.3363 350° North  Level Estimated
11:44PM 31.1979 121.3363 350° North  Level Estimated
11:45PM 31.1979 121.3363 350° North  Level Estimated
11:46PM 31.1979 121.3363 350° North  Level Estimated
11:47PM 31.1979 121.3363 350° North  Level Estimated
11:48PM 31.1979 121.3363 350° North  Level Estimated
11:49PM 31.1979 121.3363 350° North  Level Estimated
11:50PM 31.1979 121.3363 350° North  Level Estimated
11:51PM 31.1979 121.3363 350° North  Level Estimated
11:52PM 31.1979 121.3363 350° North  Level Estimated
11:53PM 31.1979 121.3363 350° North  Level Estimated
11:54PM 31.1979 121.3363 350° North  Level Estimated
11:55PM 31.1979 121.3363 350° North  Level Estimated
11:56PM 31.1979 121.3363 350° North  Level Estimated
11:57PM 31.1979 121.3363 350° North  Level Estimated
11:58PM 31.1979 121.3363 350° North  Level Estimated
11:59PM 31.1979 121.3363 350° North  Level Estimated
12:00AM 31.1979 121.3363 350° North  Level Estimated
12:01AM 31.1979 121.3363 350° North  Level Estimated
12:02AM 31.1979 121.3363 350° North  Level Estimated
12:03AM 31.1979 121.3363 350° North  Level Estimated
12:04AM 31.1979 121.3363 350° North  Level Estimated
12:05AM 31.1979 121.3363 350° North  Level Estimated
12:06AM 31.1979 121.3363 350° North  Level Estimated
12:07AM 31.1979 121.3363 350° North  Level Estimated
12:08AM 31.1979 121.3363 350° North  Level Estimated
12:09AM 31.1979 121.3363 350° North  Level Estimated
12:10AM 31.1979 121.3363 350° North  Level Estimated
12:11AM 31.1979 121.3363 350° North  Level Estimated
12:12AM 31.1979 121.3363 350° North  Level Estimated
12:13AM 31.1979 121.3363 350° North  Level Estimated
12:14AM 31.1979 121.3363 350° North  Level Estimated
12:15AM 31.1979 121.3363 350° North  Level Estimated
12:16AM 31.1979 121.3363 350° North  Level Estimated
12:17AM 31.1979 121.3363 350° North  Level Estimated
12:18AM 31.1979 121.3363 350° North  Level Estimated
12:19AM 31.1979 121.3363 350° North  Level Estimated
12:20AM 31.1979 121.3363 350° North  Level Estimated
12:21AM 31.1979 121.3363 350° North  Level Estimated
12:22AM 31.1979 121.3363 350° North  Level Estimated
12:23AM 31.1979 121.3363 350° North  Level Estimated
12:24AM 31.1979 121.3363 350° North  Level Estimated
12:25AM 31.1979 121.3363 350° North  Level Estimated
12:26AM 31.1979 121.3363 350° North  Level Estimated
12:27AM 31.1979 121.3363 350° North  Level Estimated
12:28AM 31.1979 121.3363 350° North  Level Estimated
12:29AM 31.1979 121.3363 350° North  Level Estimated
12:30AM 31.1979 121.3363 350° North  Level Estimated
12:31AM 31.1979 121.3363 350° North  Level Estimated
12:32AM 31.1979 121.3363 350° North  Level Estimated
12:33AM 31.1979 121.3363 350° North  Level Estimated
12:34AM 31.1979 121.3363 350° North  Level Estimated
12:35AM 31.1979 121.3363 350° North  Level Estimated
12:36AM 31.1979 121.3363 350° North  Level Estimated
12:37AM 31.1979 121.3363 350° North  Level Estimated
12:38AM 31.1979 121.3363 350° North  Level Estimated
12:39AM 31.1979 121.3363 350° North  Level Estimated
12:40AM 31.1979 121.3363 350° North  Level Estimated
12:41AM 31.1979 121.3363 350° North  Level Estimated
12:42AM 31.1979 121.3363 350° North  Level Estimated
12:43AM 31.1979 121.3363 350° North  Level Estimated
12:44AM 31.1979 121.3363 350° North  Level Estimated
12:45AM 31.1979 121.3363 350° North  Level Estimated
12:46AM 31.1979 121.3363 350° North  Level Estimated
12:47AM 31.1979 121.3363 350° North  Level Estimated
12:48AM 31.1979 121.3363 350° North  Level Estimated
12:49AM 31.1979 121.3363 350° North  Level Estimated
12:50AM 31.1979 121.3363 350° North  Level Estimated
12:51AM 31.1979 121.3363 350° North  Level Estimated
12:52AM 31.1979 121.3363 350° North  Level Estimated
12:53AM 31.1979 121.3363 350° North  Level Estimated
12:54AM 31.1979 121.3363 350° North  Level Estimated
12:55AM 31.1979 121.3363 350° North  Level Estimated
12:56AM 31.1979 121.3363 350° North  Level Estimated
12:57AM 31.1979 121.3363 350° North  Level Estimated
12:58AM 31.1979 121.3363 350° North  Level Estimated
12:59AM 31.1979 121.3363 350° North  Level Estimated
01:00AM 31.1979 121.3363 350° North  Level Estimated
01:01AM 31.1979 121.3363 350° North  Level Estimated
01:02AM 31.1979 121.3363 350° North  Level Estimated
01:03AM 31.1979 121.3363 350° North  Level Estimated
01:04AM 31.1979 121.3363 350° North  Level Estimated
01:05AM 31.1979 121.3363 350° North  Level Estimated
01:06AM 31.1979 121.3363 350° North  Level Estimated
01:07AM 31.1979 121.3363 350° North  Level Estimated
01:08AM 31.1979 121.3363 350° North  Level Estimated
01:09AM 31.1979 121.3363 350° North  Level Estimated
01:10AM 31.1979 121.3363 350° North  Level Estimated
01:11AM 31.1979 121.3363 350° North  Level Estimated
01:12AM 31.1979 121.3363 350° North  Level Estimated
01:13AM 31.1979 121.3363 350° North  Level Estimated
01:14AM 31.1979 121.3363 350° North  Level Estimated
01:15AM 31.1979 121.3363 350° North  Level Estimated
01:16AM 31.1979 121.3363 350° North  Level Estimated
01:17AM 31.1979 121.3363 350° North  Level Estimated
01:18AM 31.1979 121.3363 350° North  Level Estimated
01:19AM 31.1979 121.3363 350° North  Level Estimated
01:20AM 31.1979 121.3363 350° North  Level Estimated
01:21AM 31.1979 121.3363 350° North  Level Estimated
01:22AM 31.1979 121.3363 350° North  Level Estimated
01:23AM 31.1979 121.3363 350° North  Level Estimated
01:24AM 31.1979 121.3363 350° North  Level Estimated
01:25AM 31.1979 121.3363 350° North  Level Estimated
01:26AM 31.1979 121.3363 350° North  Level Estimated
01:27AM 31.1979 121.3363 350° North  Level Estimated
01:28AM 31.1979 121.3363 350° North  Level Estimated
01:29AM 31.1979 121.3363 350° North  Level Estimated
01:30AM 31.1979 121.3363 350° North  Level Estimated
01:31AM 31.1979 121.3363 350° North  Level Estimated
01:32AM 31.1979 121.3363 350° North  Level Estimated
01:33AM 31.1979 121.3363 350° North  Level Estimated
01:34AM 31.1979 121.3363 350° North  Level Estimated
01:35AM 31.1979 121.3363 350° North  Level Estimated
01:36AM 31.1979 121.3363 350° North  Level Estimated
01:37AM 31.1979 121.3363 350° North  Level Estimated
01:38AM 31.1979 121.3363 350° North  Level Estimated
01:39AM 31.1979 121.3363 350° North  Level Estimated
01:40AM 31.1979 121.3363 350° North  Level Estimated
01:41AM 31.1979 121.3363 350° North  Level Estimated
01:42AM 31.1979 121.3363 350° North  Level Estimated
01:43AM 31.1979 121.3363 350° North  Level Estimated
01:44AM 31.1979 121.3363 350° North  Level Estimated
01:45AM 31.1979 121.3363 350° North  Level Estimated
01:46AM 31.1979 121.3363 350° North  Level Estimated
01:47AM 31.1979 121.3363 350° North  Level Estimated
01:48AM 31.1979 121.3363 350° North  Level Estimated
01:49AM 31.1979 121.3363 350° North  Level Estimated
01:50AM 31.1979 121.3363 350° North  Level Estimated
01:51AM 31.1979 121.3363 350° North  Level Estimated
01:52AM 31.1979 121.3363 350° North  Level Estimated
01:53AM 31.1979 121.3363 350° North  Level Estimated
01:54AM 31.1979 121.3363 350° North  Level Estimated
01:55AM 31.1979 121.3363 350° North  Level Estimated
01:56AM 31.1979 121.3363 350° North  Level Estimated
01:57AM 31.1979 121.3363 350° North  Level Estimated
01:58AM 31.1979 121.3363 350° North  Level Estimated
01:59AM 31.1979 121.3363 350° North  Level Estimated
02:00AM 31.1979 121.3363 350° North  Level Estimated
02:01AM 31.1979 121.3363 350° North  Level Estimated
02:02AM 31.1979 121.3363 350° North  Level Estimated
02:03AM 31.1979 121.3363 350° North  Level Estimated
02:04AM 31.1979 121.3363 350° North  Level Estimated
02:05AM 31.1979 121.3363 350° North  Level Estimated
02:06AM 31.1979 121.3363 350° North  Level Estimated
02:07AM 31.1979 121.3363 350° North  Level Estimated
02:08AM 31.1979 121.3363 350° North  Level Estimated
02:09AM 31.1979 121.3363 350° North  Level Estimated
02:10AM 31.1979 121.3363 350° North  Level Estimated
02:11AM 31.1979 121.3363 350° North  Level Estimated
02:12AM 31.1979 121.3363 350° North  Level Estimated
02:13AM 31.1979 121.3363 350° North  Level Estimated
02:14AM 31.1979 121.3363 350° North  Level Estimated
02:15AM 31.1979 121.3363 350° North  Level Estimated
02:16AM 31.1979 121.3363 350° North  Level Estimated
02:17AM 31.1979 121.3363 350° North  Level Estimated
02:18AM 31.1979 121.3363 350° North  Level Estimated
02:19AM 31.1979 121.3363 350° North  Level Estimated
02:20AM 31.1979 121.3363 350° North  Level Estimated
02:21AM 31.1979 121.3363 350° North  Level Estimated
02:22AM 31.1979 121.3363 350° North  Level Estimated
02:23AM 31.1979 121.3363 350° North  Level Estimated
02:24AM 31.1979 121.3363 350° North  Level Estimated
02:25AM 31.1979 121.3363 350° North  Level Estimated
02:26AM 31.1979 121.3363 350° North  Level Estimated
02:27AM 31.1979 121.3363 350° North  Level Estimated
02:28AM 31.1979 121.3363 350° North  Level Estimated
02:29AM 31.1979 121.3363 350° North  Level Estimated
02:30AM 31.1979 121.3363 350° North  Level Estimated
02:31AM 31.1979 121.3363 350° North  Level Estimated
02:32AM 31.1979 121.3363 350° North  Level Estimated
02:33AM 31.1979 121.3363 350° North  Level Estimated
02:34AM 31.1979 121.3363 350° North  Level Estimated
02:35AM 31.1979 121.3363 350° North  Level Estimated
02:36AM 31.1979 121.3363 350° North  Level Estimated
02:37AM 31.1979 121.3363 350° North  Level Estimated
02:38AM 31.1979 121.3363 350° North  Level Estimated
02:39AM 31.1979 121.3363 350° North  Level Estimated
02:40AM 31.1979 121.3363 350° North  Level Estimated
02:41AM 31.1979 121.3363 350° North  Level Estimated
02:42AM 31.1979 121.3363 350° North  Level Estimated
02:43AM 31.1979 121.3363 350° North  Level Estimated
02:44AM 31.1979 121.3363 350° North  Level Estimated
02:45AM 31.1979 121.3363 350° North  Level Estimated
02:46AM 31.1979 121.3363 350° North  Level Estimated
02:47AM 31.1979 121.3363 350° North  Level Estimated
02:48AM 31.1979 121.3363 350° North  Level Estimated
02:49AM 31.1979 121.3363 350° North  Level Estimated
02:50AM 31.1979 121.3363 350° North  Level Estimated
02:51AM 31.1979 121.3363 350° North  Level Estimated
02:52AM 31.1979 121.3363 350° North  Level Estimated
02:53AM 31.1979 121.3363 350° North  Level Estimated
02:54AM 31.1979 121.3363 350° North  Level Estimated
02:55AM 31.1979 121.3363 350° North  Level Estimated
02:56AM 31.1979 121.3363 350° North  Level Estimated
02:57AM 31.1979 121.3363 350° North  Level Estimated
02:58AM 31.1979 121.3363 350° North  Level Estimated
02:59AM 31.1979 121.3363 350° North  Level Estimated
03:00AM 31.1979 121.3363 350° North  Level Estimated
03:01AM 31.1979 121.3363 350° North  Level Estimated
03:02AM 31.1979 121.3363 350° North  Level Estimated
03:03AM 31.1979 121.3363 350° North  Level Estimated
03:04AM 31.1979 121.3363 350° North  Level Estimated
03:05AM 31.1979 121.3363 350° North  Level Estimated
03:06AM 31.1979 121.3363 350° North  Level Estimated
03:07AM 31.1979 121.3363 350° North  Level Estimated
03:08AM 31.1979 121.3363 350° North  Level Estimated
03:09AM 31.1979 121.3363 350° North  Level Estimated
03:10AM 31.1979 121.3363 350° North  Level Estimated
03:11AM 31.1979 121.3363 350° North  Level Estimated
03:12AM 31.1979 121.3363 350° North  Level Estimated
03:13AM 31.1979 121.3363 350° North  Level Estimated
03:14AM 31.1979 121.3363 350° North  Level Estimated
03:15AM 31.1979 121.3363 350° North  Level Estimated
03:16AM 31.1979 121.3363 350° North  Level Estimated
03:17AM 31.1979 121.3363 350° North  Level Estimated
03:18AM 31.1979 121.3363 350° North  Level Estimated
03:19AM 31.1979 121.3363 350° North  Level Estimated
03:20AM 31.1979 121.3363 350° North  Level Estimated
03:21AM 31.1979 121.3363 350° North  Level Estimated
03:22AM 31.1979 121.3363 350° North  Level Estimated
03:23AM 31.1979 121.3363 350° North  Level Estimated
03:24AM 31.1979 121.3363 350° North  Level Estimated
03:25AM 31.1979 121.3363 350° North  Level Estimated
03:26AM 31.1979 121.3363 350° North  Level Estimated
03:27AM 31.1979 121.3363 350° North  Level Estimated
03:28AM 31.1979 121.3363 350° North  Level Estimated
03:29AM 31.1979 121.3363 350° North  Level Estimated
03:30AM 31.1979 121.3363 350° North  Level Estimated
03:31AM 31.1979 121.3363 350° North  Level Estimated
03:32AM 31.1979 121.3363 350° North  Level Estimated
03:33AM 31.1979 121.3363 350° North  Level Estimated
03:34AM 31.1979 121.3363 350° North  Level Estimated
03:35AM 31.1979 121.3363 350° North  Level Estimated
03:36AM 31.1979 121.3363 350° North  Level Estimated
03:37AM 31.1979 121.3363 350° North  Level Estimated
03:38AM 31.1979 121.3363 350° North  Level Estimated
03:39AM 31.1979 121.3363 350° North  Level Estimated
03:40AM 31.1979 121.3363 350° North  Level Estimated
03:41AM 31.1979 121.3363 350° North  Level Estimated
03:42AM 31.1979 121.3363 350° North  Level Estimated
03:43AM 31.1979 121.3363 350° North  Level Estimated
03:44AM 31.1979 121.3363 350° North  Level Estimated
03:45AM 31.1979 121.3363 350° North  Level Estimated
03:46AM 31.1979 121.3363 350° North  Level Estimated
03:47AM 31.1979 121.3363 350° North  Level Estimated
03:48AM 31.1979 121.3363 350° North  Level Estimated
03:49AM 31.1979 121.3363 350° North  Level Estimated
03:50AM 31.1979 121.3363 350° North  Level Estimated
03:51AM 31.1979 121.3363 350° North  Level Estimated
03:52AM 31.1979 121.3363 350° North  Level Estimated
03:53AM 31.1979 121.3363 350° North  Level Estimated
03:54AM 31.1979 121.3363 350° North  Level Estimated
03:55AM 31.1979 121.3363 350° North  Level Estimated
03:56AM 31.1979 121.3363 350° North  Level Estimated
03:57AM 31.1979 121.3363 350° North  Level Estimated
03:58AM 31.1979 121.3363 350° North  Level Estimated
03:59AM 31.1979 121.3363 350° North  Level Estimated
04:00AM 31.1979 121.3363 350° North  Level Estimated
04:01AM 31.1979 121.3363 350° North  Level Estimated
04:02AM 31.1979 121.3363 350° North  Level Estimated
04:03AM 31.1979 121.3363 350° North  Level Estimated
04:04AM 31.1979 121.3363 350° North  Level Estimated
04:05AM 31.1979 121.3363 350° North  Level Estimated
04:06AM 31.1979 121.3363 350° North  Level Estimated
04:07AM 31.1979 121.3363 350° North  Level Estimated
04:08AM 31.1979 121.3363 350° North  Level Estimated
04:09AM 31.1979 121.3363 350° North  Level Estimated
04:10AM 31.1979 121.3363 350° North  Level Estimated
04:11AM 31.1979 121.3363 350° North  Level Estimated
04:12AM 31.1979 121.3363 350° North  Level Estimated
04:13AM 31.1979 121.3363 350° North  Level Estimated
04:14AM 31.1979 121.3363 350° North  Level Estimated
04:15AM 31.1979 121.3363 350° North  Level Estimated
04:16AM 31.1979 121.3363 350° North  Level Estimated
04:17AM 31.1979 121.3363 350° North  Level Estimated
04:18AM 31.1979 121.3363 350° North  Level Estimated
04:19AM 31.1979 121.3363 350° North  Level Estimated
04:20AM 31.1979 121.3363 350° North  Level Estimated
04:21AM 31.1979 121.3363 350° North  Level Estimated
04:22AM 31.1979 121.3363 350° North  Level Estimated
04:23AM 31.1979 121.3363 350° North  Level Estimated
04:24AM 31.1979 121.3363 350° North  Level Estimated
04:25AM 31.1979 121.3363 350° North  Level Estimated
04:26AM 31.1979 121.3363 350° North  Level Estimated
04:27AM 31.1979 121.3363 350° North  Level Estimated
04:28AM 31.1979 121.3363 350° North  Level Estimated
04:29AM 31.1979 121.3363 350° North  Level Estimated
04:30AM 31.1979 121.3363 350° North  Level Estimated
04:31AM 31.1979 121.3363 350° North  Level Estimated
04:32AM 31.1979 121.3363 350° North  Level Estimated
04:33AM 31.1979 121.3363 350° North  Level Estimated
04:34AM 31.1979 121.3363 350° North  Level Estimated
04:35AM 31.1979 121.3363 350° North  Level Estimated
04:36AM 31.1979 121.3363 350° North  Level Estimated
04:37AM 31.1979 121.3363 350° North  Level Estimated
04:38AM 31.1979 121.3363 350° North  Level Estimated
04:39AM 31.1979 121.3363 350° North  Level Estimated
04:40AM 31.1979 121.3363 350° North  Level Estimated
04:41AM 31.1979 121.3363 350° North  Level Estimated
04:42AM 31.1979 121.3363 350° North  Level Estimated
04:43AM 31.1979 121.3363 350° North  Level Estimated
04:44AM 31.1979 121.3363 350° North  Level Estimated
04:45AM 31.1979 121.3363 350° North  Level Estimated
04:46AM 31.1979 121.3363 350° North  Level Estimated
04:47AM 31.1979 121.3363 350° North  Level Estimated
04:48AM 31.1979 121.3363 350° North  Level Estimated
04:49AM 31.1979 121.3363 350° North  Level Estimated
04:50AM 31.1979 121.3363 350° North  Level Estimated
04:51AM 31.1979 121.3363 350° North  Level Estimated
04:52AM 31.1979 121.3363 350° North  Level Estimated
04:53AM 31.1979 121.3363 350° North  Level Estimated
04:54AM 31.1979 121.3363 350° North  Level Estimated
04:55AM 31.1979 121.3363 350° North  Level Estimated
04:56AM 31.1979 121.3363 350° North  Level Estimated
04:57AM 31.1979 121.3363 350° North  Level Estimated
04:58AM 31.1979 121.3363 350° North  Level Estimated
04:59AM 31.1979 121.3363 350° North  Level Estimated
05:00AM 31.1979 121.3363 350° North  Level Estimated
05:01AM 31.1979 121.3363 350° North  Level Estimated
05:02AM 31.1979 121.3363 350° North  Level Estimated
05:03AM 31.1979 121.3363 350° North  Level Estimated
05:04AM 31.1979 121.3363 350° North  Level Estimated
05:05AM 31.1979 121.3363 350° North  Level Estimated
05:06AM 31.1979 121.3363 350° North  Level Estimated
05:07AM 31.1979 121.3363 350° North  Level Estimated
05:08AM 31.1979 121.3363 350° North  Level Estimated
05:09AM 31.1979 121.3363 350° North  Level Estimated
05:10AM 31.1979 121.3363 350° North  Level Estimated
05:11AM 31.1979 121.3363 350° North  Level Estimated
05:12AM 31.1979 121.3363 350° North  Level Estimated
05:13AM 31.1979 121.3363 350° North  Level Estimated
05:14AM 31.1979 121.3363 350° North  Level Estimated
05:15AM 31.1979 121.3363 350° North  Level Estimated
05:16AM 31.1979 121.3363 350° North  Level Estimated
05:17AM 31.1979 121.3363 350° North  Level Estimated
05:18AM 31.1979 121.3363 350° North  Level Estimated
05:19AM 31.1979 121.3363 350° North  Level Estimated
05:20AM 31.1979 121.3363 350° North  Level Estimated
05:21AM 31.1979 121.3363 350° North  Level Estimated
05:22AM 31.1979 121.3363 350° North  Level Estimated
05:23AM 31.1979 121.3363 350° North  Level Estimated
05:24AM 31.1979 121.3363 350° North  Level Estimated
05:25AM 31.1979 121.3363 350° North  Level Estimated
05:26AM 31.1979 121.3363 350° North  Level Estimated
05:27AM 31.1979 121.3363 350° North  Level Estimated
05:28AM 31.1979 121.3363 350° North  Level Estimated
05:29AM 31.1979 121.3363 350° North  Level Estimated
05:30AM 31.1979 121.3363 350° North  Level Estimated
05:31AM 31.1979 121.3363 350° North  Level Estimated
05:32AM 31.1979 121.3363 350° North  Level Estimated
05:33AM 31.1979 121.3363 350° North  Level Estimated
05:34AM 31.1979 121.3363 350° North  Level Estimated
05:35AM 31.1979 121.3363 350° North  Level Estimated
05:36AM 31.1979 121.3363 350° North  Level Estimated
05:37AM 31.1979 121.3363 350° North  Level Estimated
05:38AM 31.1979 121.3363 350° North  Level Estimated
05:39AM 31.1979 121.3363 350° North  Level Estimated
05:40AM 31.1979 121.3363 350° North  Level Estimated
05:41AM 31.1979 121.3363 350° North  Level Estimated
05:42AM 31.1979 121.3363 350° North  Level Estimated
05:43AM 31.1979 121.3363 350° North  Level Estimated
05:44AM 31.1979 121.3363 350° North  Level Estimated
05:45AM 31.1979 121.3363 350° North  Level Estimated
05:46AM 31.1979 121.3363 350° North  Level Estimated
05:47AM 31.1979 121.3363 350° North  Level Estimated
05:48AM 31.1979 121.3363 350° North  Level Estimated
05:49AM 31.1979 121.3363 350° North  Level Estimated
05:50AM 31.1979 121.3363 350° North  Level Estimated
05:51AM 31.1979 121.3363 350° North  Level Estimated
05:52AM 31.1979 121.3363 350° North  Level Estimated
05:53AM 31.1979 121.3363 350° North  Level Estimated
05:54AM 31.1979 121.3363 350° North  Level Estimated
05:55AM 31.1979 121.3363 350° North  Level Estimated
05:56AM 31.1979 121.3363 350° North  Level Estimated
05:57AM 31.1979 121.3363 350° North  Level Estimated
05:58AM 31.1979 121.3363 350° North  Level Estimated
05:59AM 31.1979 121.3363 350° North  Level Estimated
06:00AM 31.1979 121.3363 350° North  Level Estimated
06:01AM 31.1979 121.3363 350° North  Level Estimated
06:02AM 31.1979 121.3363 350° North  Level Estimated
06:03AM 31.1979 121.3363 350° North  Level Estimated
06:04AM 31.1979 121.3363 350° North  Level Estimated
06:05AM 31.1979 121.3363 350° North  Level Estimated
06:06AM 31.1979 121.3363 350° North  Level Estimated
06:07AM 31.1979 121.3363 350° North  Level Estimated
06:08AM 31.1979 121.3363 350° North  Level Estimated
06:09AM 31.1979 121.3363 350° North  Level Estimated
06:10AM 31.1979 121.3363 350° North  Level Estimated
06:11AM 31.1979 121.3363 350° North  Level Estimated
06:12AM 31.1979 121.3363 350° North  Level Estimated
06:13AM 31.1979 121.3363 350° North  Level Estimated
06:14AM 31.1979 121.3363 350° North  Level Estimated
06:15AM 31.1979 121.3363 350° North  Level Estimated
06:16AM 31.1979 121.3363 350° North  Level Estimated
06:17AM 31.1979 121.3363 350° North  Level Estimated
06:18AM 31.1979 121.3363 350° North  Level Estimated
06:19AM 31.1979 121.3363 350° North  Level Estimated
06:20AM 31.1979 121.3363 350° North  Level Estimated
06:21AM 31.1979 121.3363 350° North  Level Estimated
06:22AM 31.1979 121.3363 350° North  Level Estimated
06:23AM 31.1979 121.3363 350° North  Level Estimated
06:24AM 31.1979 121.3363 350° North  Level Estimated
06:25AM 31.1979 121.3363 350° North  Level Estimated
06:26AM 31.1979 121.3363 350° North  Level Estimated
06:27AM 31.1979 121.3363 350° North  Level Estimated
06:28AM 31.1979 121.3363 350° North  Level Estimated
06:29AM 31.1979 121.3363 350° North  Level Estimated
06:30AM 31.1979 121.3363 350° North  Level Estimated
06:31AM 31.1979 121.3363 350° North  Level Estimated
06:32AM 31.1979 121.3363 350° North  Level Estimated
06:33AM 31.1979 121.3363 350° North  Level Estimated
06:34AM 31.1979 121.3363 350° North  Level Estimated
06:35AM 31.1979 121.3363 350° North  Level Estimated
06:36AM 31.1979 121.3363 350° North  Level Estimated
06:37AM 31.1979 121.3363 350° North  Level Estimated
06:38AM 31.1979 121.3363 350° North  Level Estimated
06:39AM 31.1979 121.3363 350° North  Level Estimated
06:40AM 31.1979 121.3363 350° North  Level Estimated
06:41AM 31.1979 121.3363 350° North  Level Estimated
06:42AM 31.1979 121.3363 350° North  Level Estimated
06:43AM 31.1979 121.3363 350° North  Level Estimated
06:44AM 31.1979 121.3363 350° North  Level Estimated
06:45AM 31.1979 121.3363 350° North  Level Estimated
06:46AM 31.1979 121.3363 350° North  Level Estimated
06:47AM 31.1979 121.3363 350° North  Level Estimated
06:48AM 31.1979 121.3363 350° North  Level Estimated
06:49AM 31.1979 121.3363 350° North  Level Estimated
06:50AM 31.1979 121.3363 350° North  Level Estimated
06:51AM 31.1979 121.3363 350° North  Level Estimated
06:52AM 31.1979 121.3363 350° North  Level Estimated
06:53AM 31.1979 121.3363 350° North  Level Estimated
06:54AM 31.1979 121.3363 350° North  Level Estimated
06:55AM 31.1979 121.3363 350° North  Level Estimated
06:56AM 31.1979 121.3363 350° North  Level Estimated
06:57AM 31.1979 121.3363 350° North  Level Estimated
06:58AM 31.1979 121.3363 350° North  Level Estimated
06:59AM 31.1979 121.3363 350° North  Level Estimated
07:00AM 31.1979 121.3363 350° North  Level Estimated
07:01AM 31.1979 121.3363 350° North  Level Estimated
07:02AM 31.1979 121.3363 350° North  Level Estimated
07:03AM 31.1979 121.3363 350° North  Level Estimated
07:04AM 31.1979 121.3363 350° North  Level Estimated
07:05AM 31.1979 121.3363 350° North  Level Estimated
07:06AM 31.1979 121.3363 350° North  Level Estimated
07:07AM 31.1979 121.3363 350° North  Level Estimated
07:08AM 31.1979 121.3363 350° North  Level Estimated
07:09AM 31.1979 121.3363 350° North  Level Estimated
07:10AM 31.1979 121.3363 350° North  Level Estimated
07:11AM 31.1979 121.3363 350° North  Level Estimated
07:12AM 31.1979 121.3363 350° North  Level Estimated
07:13AM 31.1979 121.3363 350° North  Level Estimated
07:14AM 31.1979 121.3363 350° North  Level Estimated
07:15AM 31.1979 121.3363 350° North  Level Estimated
07:16AM 31.1979 121.3363 350° North  Level Estimated
07:17AM 31.1979 121.3363 350° North  Level Estimated
07:18AM 31.1979 121.3363 350° North  Level Estimated
07:19AM 31.1979 121.3363 350° North  Level Estimated
07:20AM 31.1979 121.3363 350° North  Level Estimated
07:21AM 31.1979 121.3363 350° North  Level Estimated
07:22AM 31.1979 121.3363 350° North  Level Estimated
07:23AM 31.1979 121.3363 350° North  Level Estimated
07:24AM 31.1979 121.3363 350° North  Level Estimated
07:25AM 31.1979 121.3363 350° North  Level Estimated
07:26AM 31.1979 121.3363 350° North  Level Estimated
07:27AM 31.1979 121.3363 350° North  Level Estimated
07:28AM 31.1979 121.3363 350° North  Level Estimated
07:29AM 31.1979 121.3363 350° North  Level Estimated
07:30AM 31.1979 121.3363 350° North  Level Estimated
07:31AM 31.1979 121.3363 350° North  Level Estimated
07:32AM 31.1979 121.3363 350° North  Level Estimated
07:33AM 31.1979 121.3363 350° North  Level Estimated
07:34AM 31.1979 121.3363 350° North  Level Estimated
07:35AM 31.1979 121.3363 350° North  Level Estimated
07:36AM 31.1979 121.3363 350° North  Level Estimated
07:37AM 31.1979 121.3363 350° North  Level Estimated
07:38AM 31.1979 121.3363 350° North  Level Estimated
07:39AM 31.1979 121.3363 350° North  Level Estimated
07:40AM 31.1979 121.3363 350° North  Level Estimated
07:41AM 31.1979 121.3363 350° North  Level Estimated
07:42AM 31.1979 121.3363 350° North  Level Estimated
07:43AM 31.1979 121.3363 350° North  Level Estimated
07:44AM 31.1979 121.3363 350° North  Level Estimated
07:45AM 31.1979 121.3363 350° North  Level Estimated
07:46AM 31.1979 121.3363 350° North  Level Estimated
07:47AM 31.1979 121.3363 350° North  Level Estimated
07:48AM 31.1979 121.3363 350° North  Level Estimated
07:49AM 31.1979 121.3363 350° North  Level Estimated
07:50AM 31.1979 121.3363 350° North  Level Estimated
07:51AM 31.1979 121.3363 350° North  Level Estimated
07:52AM 31.1979 121.3363 350° North  Level Estimated
07:53AM 31.1979 121.3363 350° North  Level Estimated
07:54AM 31.1979 121.3363 350° North  Level Estimated
07:55AM 31.1979 121.3363 350° North  Level Estimated
07:56AM 31.1979 121.3363 350° North  Level Estimated
07:57AM 31.1979 121.3363 350° North  Level Estimated
07:58AM 31.1979 121.3363 350° North  Level Estimated
07:59AM 31.1979 121.3363 350° North  Level Estimated
08:00AM 31.1979 121.3363 350° North  Level Estimated
08:01AM 31.1979 121.3363 350° North  Level Estimated
08:02AM 31.1979 121.3363 350° North  Level Estimated
08:03AM 31.1979 121.3363 350° North  Level Estimated
08:04AM 31.1979 121.3363 350° North  Level Estimated
08:05AM 31.1979 121.3363 350° North  Level Estimated
08:06AM 31.1979 121.3363 350° North  Level Estimated
08:07AM 31.1979 121.3363 350° North  Level Estimated
08:08AM 31.1979 121.3363 350° North  Level Estimated
08:09AM 31.1979 121.3363 350° North  Level Estimated
08:10AM 31.1979 121.3363 350° North  Level Estimated
08:11AM 31.1979 121.3363 350° North  Level Estimated
08:12AM 31.1979 121.3363 350° North  Level Estimated
08:13AM 31.1979 121.3363 350° North  Level Estimated
08:14AM 31.1979 121.3363 350° North  Level Estimated
08:15AM 31.1979 121.3363 350° North  Level Estimated
08:16AM 31.1979 121.3363 350° North  Level Estimated
08:17AM 31.1979 121.3363 350° North  Level Estimated
08:18AM 31.1979 121.3363 350° North  Level Estimated
08:19AM 31.1979 121.3363 350° North  Level Estimated
08:20AM 31.1979 121.3363 350° North  Level Estimated
08:21AM 31.1979 121.3363 350° North  Level Estimated
08:22AM 31.1979 121.3363 350° North  Level Estimated
08:23AM 31.1979 121.3363 350° North  Level Estimated
08:24AM 31.1979 121.3363 350° North  Level Estimated
08:25AM 31.1979 121.3363 350° North  Level Estimated
08:26AM 31.1979 121.3363 350° North  Level Estimated
08:27AM 31.1979 121.3363 350° North  Level Estimated
08:28AM 31.1979 121.3363 350° North  Level Estimated
08:29AM 31.1979 121.3363 350° North  Level Estimated
08:30AM 31.1979 121.3363 350° North  Level Estimated
08:31AM 31.1979 121.3363 350° North  Level Estimated
08:32AM 31.1979 121.3363 350° North  Level Estimated
08:33AM 31.1979 121.3363 350° North  Level Estimated
08:34AM 31.1979 121.3363 350° North  Level Estimated
08:35AM 31.1979 121.3363 350° North  Level Estimated
08:36AM 31.1979 121.3363 350° North  Level Estimated
08:37AM 31.1979 121.3363 350° North  Level Estimated
08:38AM 31.1979 121.3363 350° North  Level Estimated
08:39AM 31.1979 121.3363 350° North  Level Estimated
08:40AM 31.1979 121.3363 350° North  Level Estimated
08:41AM 31.1979 121.3363 350° North  Level Estimated
08:42AM 31.1979 121.3363 350° North  Level Estimated
08:43AM 31.1979 121.3363 350° North  Level Estimated
08:44AM 31.1979 121.3363 350° North  Level Estimated
08:45AM 31.1979 121.3363 350° North  Level Estimated
08:46AM 31.1979 121.3363 350° North  Level Estimated
08:47AM 31.1979 121.3363 350° North  Level Estimated
08:48AM 31.1979 121.3363 350° North  Level Estimated
08:49AM 31.1979 121.3363 350° North  Level Estimated
08:50AM 31.1979 121.3363 350° North  Level Estimated
08:51AM 31.1979 121.3363 350° North  Level Estimated
08:52AM 31.1979 121.3363 350° North  Level Estimated
08:53AM 31.1979 121.3363 350° North  Level Estimated
08:54AM 31.1979 121.3363 350° North  Level Estimated
08:55AM 31.1979 121.3363 350° North  Level Estimated
08:56AM 31.1979 121.3363 350° North  Level Estimated
08:57AM 31.1979 121.3363 350° North  Level Estimated
08:58AM 31.1979 121.3363 350° North  Level Estimated
08:59AM 31.1979 121.3363 350° North  Level Estimated
09:00AM 31.1979 121.3363 350° North  Level Estimated
09:01AM 31.1979 121.3363 350° North  Level Estimated
09:02AM 31.1979 121.3363 350° North  Level Estimated
09:03AM 31.1979 121.3363 350° North  Level Estimated
09:04AM 31.1979 121.3363 350° North  Level Estimated
09:05AM 31.1979 121.3363 350° North  Level Estimated
09:06AM 31.1979 121.3363 350° North  Level Estimated
09:07AM 31.1979 121.3363 350° North  Level Estimated
09:08AM 31.1979 121.3363 350° North  Level Estimated
09:09AM 31.1979 121.3363 350° North  Level Estimated
09:10AM 31.1979 121.3363 350° North  Level Estimated
09:11AM 31.1979 121.3363 350° North  Level Estimated
09:12AM 31.1979 121.3363 350° North  Level Estimated
09:13AM 31.1979 121.3363 350° North  Level Estimated
09:14AM 31.1979 121.3363 350° North  Level Estimated
09:15AM 31.1979 121.3363 350° North  Level Estimated
09:16AM 31.1979 121.3363 350° North  Level Estimated
09:17AM 31.1979 121.3363 350° North  Level Estimated
09:18AM 31.1979 121.3363 350° North  Level Estimated
09:19AM 31.1979 121.3363 350° North  Level Estimated
09:20AM 31.1979 121.3363 350° North  Level Estimated
09:21AM 31.1979 121.3363 350° North  Level Estimated
09:22AM 31.1979 121.3363 350° North  Level Estimated
09:23AM 31.1979 121.3363 350° North  Level Estimated
09:24AM 31.1979 121.3363 350° North  Level Estimated
09:25AM 31.1979 121.3363 350° North  Level Estimated
09:26AM 31.1979 121.3363 350° North  Level Estimated
09:27AM 31.1979 121.3363 350° North  Level Estimated
09:28AM 31.1979 121.3363 350° North  Level Estimated
09:29AM 31.1979 121.3363 350° North  Level Estimated
09:30AM 31.1979 121.3363 350° North  Level Estimated
09:31AM 31.1979 121.3363 350° North  Level Estimated
09:32AM 31.1979 121.3363 350° North  Level Estimated
09:33AM 31.1979 121.3363 350° North  Level Estimated
09:34AM 31.1979 121.3363 350° North  Level Estimated
09:35AM 31.1979 121.3363 350° North  Level Estimated
09:36AM 31.1979 121.3363 350° North  Level Estimated
09:37AM 31.1979 121.3363 350° North  Level Estimated
09:38AM 31.1979 121.3363 350° North  Level Estimated
09:39AM 31.1979 121.3363 350° North  Level Estimated
09:40AM 31.1979 121.3363 350° North  Level Estimated
09:41AM 31.1979 121.3363 350° North  Level Estimated
09:42AM 31.1979 121.3363 350° North  Level Estimated
09:43AM 31.1979 121.3363 350° North  Level Estimated
09:44AM 31.1979 121.3363 350° North  Level Estimated
09:45AM 31.1979 121.3363 350° North  Level Estimated
09:46AM 31.1979 121.3363 350° North  Level Estimated
09:47AM 31.1979 121.3363 350° North  Level Estimated
09:48AM 31.1979 121.3363 350° North  Level Estimated
09:49AM 31.1979 121.3363 350° North  Level Estimated
09:50AM 31.1979 121.3363 350° North  Level Estimated
09:51AM 31.1979 121.3363 350° North  Level Estimated
09:52AM 31.1979 121.3363 350° North  Level Estimated
09:53AM 31.1979 121.3363 350° North  Level Estimated
09:54AM 31.1979 121.3363 350° North  Level Estimated
09:55AM 31.1979 121.3363 350° North  Level Estimated
09:56AM 31.1979 121.3363 350° North  Level Estimated
09:57AM 31.1979 121.3363 350° North  Level Estimated
09:58AM 31.1979 121.3363 350° North  Level Estimated
09:59AM 31.1979 121.3363 350° North  Level Estimated
10:00AM 31.1979 121.3363 350° North  Level Estimated
10:01AM 31.1979 121.3363 350° North  Level Estimated
10:02AM 31.1979 121.3363 350° North  Level Estimated
10:03AM 31.1979 121.3363 350° North  Level Estimated
10:04AM 31.1979 121.3363 350° North  Level Estimated
10:05AM 31.1979 121.3363 350° North  Level Estimated
10:06AM 31.1979 121.3363 350° North  Level Estimated
10:07AM 31.1979 121.3363 350° North  Level Estimated
10:08AM 31.1979 121.3363 350° North  Level Estimated
10:09AM 31.1979 121.3363 350° North  Level Estimated
10:10AM 31.1979 121.3363 350° North  Level Estimated
10:11AM 31.1979 121.3363 350° North  Level Estimated
10:12AM 31.1979 121.3363 350° North  Level Estimated
10:13AM 31.1979 121.3363 350° North  Level Estimated
10:14AM 31.1979 121.3363 350° North  Level Estimated
10:15AM 31.1979 121.3363 350° North  Level Estimated
10:16AM 31.1979 121.3363 350° North  Level Estimated
10:17AM 31.1979 121.3363 350° North  Level Estimated
10:18AM 31.1979 121.3363 350° North  Level Estimated
10:19AM 31.1979 121.3363 350° North  Level Estimated
10:20AM 31.1979 121.3363 350° North  Level Estimated
10:21AM 31.1979 121.3363 350° North  Level Estimated
10:22AM 31.1979 121.3363 350° North  Level Estimated
10:23AM 31.1979 121.3363 350° North  Level Estimated
10:24AM 31.1979 121.3363 350° North  Level Estimated
10:25AM 31.1979 121.3363 350° North  Level Estimated
10:26AM 31.1979 121.3363 350° North  Level Estimated
10:27AM 31.1979 121.3363 350° North  Level Estimated
10:28AM 31.1979 121.3363 350° North  Level Estimated
10:29AM 31.1979 121.3363 350° North  Level Estimated
10:30AM 31.1979 121.3363 350° North  Level Estimated
10:31AM 31.1979 121.3363 350° North  Level Estimated
10:32AM 31.1979 121.3363 350° North  Level Estimated
10:33AM 31.1979 121.3363 350° North  Level Estimated
10:34AM 31.1979 121.3363 350° North  Level Estimated
10:35AM 31.1979 121.3363 350° North  Level Estimated
10:36AM 31.1979 121.3363 350° North  Level Estimated
10:37AM 31.1979 121.3363 350° North  Level Estimated
10:38AM 31.1979 121.3363 350° North  Level Estimated
10:39AM 31.1979 121.3363 350° North  Level Estimated
10:40AM 31.1979 121.3363 350° North  Level Estimated
10:41AM 31.1979 121.3363 350° North  Level Estimated
10:42AM 31.1979 121.3363 350° North  Level Estimated
10:43AM 31.1979 121.3363 350° North  Level Estimated
10:44AM 31.1979 121.3363 350° North  Level Estimated
10:45AM 31.1979 121.3363 350° North  Level Estimated
10:46AM 31.1979 121.3363 350° North  Level Estimated
10:47AM 31.1979 121.3363 350° North  Level Estimated
10:48AM 31.1979 121.3363 350° North  Level Estimated
10:49AM 31.1979 121.3363 350° North  Level Estimated
10:50AM 31.1979 121.3363 350° North  Level Estimated
10:51AM 31.1979 121.3363 350° North  Level Estimated
10:52AM 31.1979 121.3363 350° North  Level Estimated
10:53AM 31.1979 121.3363 350° North  Level Estimated
10:54AM 31.1979 121.3363 350° North  Level Estimated
10:55AM 31.1979 121.3363 350° North  Level Estimated
10:56AM 31.1979 121.3363 350° North  Level Estimated
10:57AM 31.1979 121.3363 350° North  Level Estimated
10:58AM 31.1979 121.3363 350° North  Level Estimated
10:59AM 31.1979 121.3363 350° North  Level Estimated
11:00AM 31.1979 121.3363 350° North  Level Estimated
11:01AM 31.1979 121.3363 350° North  Level Estimated
11:02AM 31.1979 121.3363 350° North  Level Estimated
11:03AM 31.1979 121.3363 350° North  Level Estimated
11:04AM 31.1979 121.3363 350° North  Level Estimated
11:05AM 31.1979 121.3363 350° North  Level Estimated
11:06AM 31.1979 121.3363 350° North  Level Estimated
11:07AM 31.1979 121.3363 350° North  Level Estimated
11:07AM 31.1979 121.3363 350° North  Level Estimated
11:08AM 31.1979 121.3363 350° North  Level Estimated
11:09AM 31.1979 121.3363 350° North  Level Estimated
11:09AM 31.1979 121.3363 350° North  Level Estimated
11:10AM 31.1979 121.3363 350° North  Level Estimated
11:10AM 31.1979 121.3363 350° North  Level Estimated
11:11AM 31.1979 121.3363 350° North  Level Estimated
11:11AM 31.1979 121.3363 350° North  Level Estimated
11:12AM 31.1979 121.3363 350° North  Level Estimated
11:12AM 31.1979 121.3363 350° North  Level Estimated
11:13AM 31.1979 121.3363 350° North  Level Estimated
11:13AM 31.1979 121.3363 350° North  Level Estimated
11:14AM 31.1979 121.3363 350° North  Level Estimated
11:15AM 31.1979 121.3363 350° North  Level Estimated
11:16AM 31.1979 121.3363 350° North  Level Estimated
11:17AM 31.1979 121.3363 350° North  Level Estimated
11:18AM 31.1979 121.3363 350° North  Level Estimated
11:19AM 31.1979 121.3363 350° North  Level Estimated
11:20AM 31.1979 121.3363 350° North  Level Estimated
11:21AM 31.1979 121.3363 350° North  Level Estimated
11:22AM 31.1979 121.3363 350° North  Level Estimated
11:23AM 31.1979 121.3363 350° North  Level Estimated
11:24AM 31.1979 121.3363 350° North  Level Estimated
11:25AM 31.1979 121.3363 350° North  Level Estimated
11:26AM 31.1979 121.3363 350° North  Level Estimated
11:27AM 31.1979 121.3363 350° North  Level Estimated
11:28AM 31.1979 121.3363 350° North  Level Estimated
11:29AM 31.1979 121.3363 350° North  Level Estimated
11:30AM 31.1979 121.3363 350° North  Level Estimated
11:31AM 31.1979 121.3363 350° North  Level Estimated
11:32AM 31.1979 121.3363 350° North  Level Estimated
11:33AM 31.1979 121.3363 350° North  Level Estimated
11:34AM 31.1979 121.3363 350° North  Level Estimated
11:35AM 31.1979 121.3363 350° North  Level Estimated
11:36AM 31.1979 121.3363 350° North  Level Estimated
11:37AM 31.1979 121.3363 350° North  Level Estimated
11:38AM 31.1979 121.3363 350° North  Level Estimated
11:39AM 31.1979 121.3363 350° North  Level Estimated
11:40AM 31.1979 121.3363 350° North  Level Estimated
11:41AM 31.1979 121.3363 350° North  Level Estimated
11:42AM 31.1979 121.3363 350° North  Level Estimated
11:43AM 31.1979 121.3363 350° North  Level Estimated
11:44AM 31.1979 121.3363 350° North  Level Estimated
11:45AM 31.1979 121.3363 350° North  Level Estimated
11:46AM 31.1979 121.3363 350° North  Level Estimated
11:47AM 31.1979 121.3363 350° North  Level Estimated
11:48AM 31.1979 121.3363 350° North  Level Estimated
11:49AM 31.1979 121.3363 350° North  Level Estimated
11:50AM 31.1979 121.3363 350° North  Level Estimated
11:51AM 31.1979 121.3363 350° North  Level Estimated
11:52AM 31.1979 121.3363 350° North  Level Estimated
11:53AM 31.1979 121.3363 350° North  Level Estimated
11:54AM 31.1979 121.3363 350° North  Level Estimated
11:55AM 31.1979 121.3363 350° North  Level Estimated
11:56AM 31.1979 121.3363 350° North  Level Estimated
11:57AM 31.1979 121.3363 350° North  Level Estimated
11:58AM 31.1979 121.3363 350° North  Level Estimated
11:59AM 31.1979 121.3363 350° North  Level Estimated
12:00PM 31.1979 121.3363 350° North  Level Estimated
12:01PM 31.1979 121.3363 350° North  Level Estimated
12:02PM 31.1979 121.3363 350° North  Level Estimated
12:03PM 31.1979 121.3363 350° North  Level Estimated
12:04PM 31.1979 121.3363 350° North  Level Estimated
12:05PM 31.1979 121.3363 350° North  Level Estimated
12:06PM 31.1979 121.3363 350° North  Level Estimated
12:07PM 31.1979 121.3363 350° North  Level Estimated
12:08PM 31.1979 121.3363 350° North  Level Estimated
12:09PM 31.1979 121.3363 350° North  Level Estimated
12:10PM 31.1979 121.3363 350° North  Level Estimated
12:11PM 31.1979 121.3363 350° North  Level Estimated
12:12PM 31.1979 121.3363 350° North  Level Estimated
12:13PM 31.1979 121.3363 350° North  Level Estimated
12:14PM 31.1979 121.3363 350° North  Level Estimated
12:15PM 31.1979 121.3363 350° North  Level Estimated
12:16PM 31.1979 121.3363 350° North  Level Estimated
12:17PM 31.1979 121.3363 350° North  Level Estimated
12:18PM 31.1979 121.3363 350° North  Level Estimated
12:19PM 31.1979 121.3363 350° North  Level Estimated
12:20PM 31.1979 121.3363 350° North  Level Estimated
12:21PM 31.1979 121.3363 350° North  Level Estimated
12:22PM 31.1979 121.3363 350° North  Level Estimated
12:23PM 31.1979 121.3363 350° North  Level Estimated
12:24PM 31.1979 121.3363 350° North  Level Estimated
12:25PM 31.1979 121.3363 350° North  Level Estimated
12:26PM 31.1979 121.3363 350° North  Level Estimated
12:27PM 31.1979 121.3363 350° North  Level Estimated
12:28PM 31.1979 121.3363 350° North  Level Estimated
12:29PM 31.1979 121.3363 350° North  Level Estimated
12:30PM 31.1979 121.3363 350° North  Level Estimated
12:31PM 31.1979 121.3363 350° North  Level Estimated
12:32PM 31.1979 121.3363 350° North  Level Estimated
12:33PM 31.1979 121.3363 350° North  Level Estimated
12:34PM 31.1979 121.3363 350° North  Level Estimated
12:35PM 31.1979 121.3363 350° North  Level Estimated
12:36PM 31.1979 121.3363 350° North  Level Estimated
12:37PM 31.1979 121.3363 350° North  Level Estimated
12:38PM 31.1979 121.3363 350° North  Level Estimated
12:39PM 31.1979 121.3363 350° North  Level Estimated
12:40PM 31.1979 121.3363 350° North  Level Estimated
12:41PM 31.1979 121.3363 350° North  Level Estimated
12:42PM 31.1979 121.3363 350° North  Level Estimated
12:43PM 31.1979 121.3363 350° North  Level Estimated
12:44PM 31.1979 121.3363 350° North  Level Estimated
12:45PM 31.1979 121.3363 350° North  Level Estimated
12:46PM 31.1979 121.3363 350° North  Level Estimated
12:47PM 31.1979 121.3363 350° North  Level Estimated
12:48PM 31.1979 121.3363 350° North  Level Estimated
12:49PM 31.1979 121.3363 350° North  Level Estimated
12:50PM 31.1979 121.3363 350° North  Level Estimated
12:51PM 31.1979 121.3363 350° North  Level Estimated
12:52PM 31.1979 121.3363 350° North  Level Estimated
12:53PM 31.1979 121.3363 350° North  Level Estimated
12:54PM 31.1979 121.3363 350° North  Level Estimated
12:55PM 31.1979 121.3363 350° North  Level Estimated
12:56PM 31.1979 121.3363 350° North  Level Estimated
12:57PM 31.1979 121.3363 350° North  Level Estimated
12:58PM 31.1979 121.3363 350° North  Level Estimated
12:59PM 31.1979 121.3363 350° North  Level Estimated
01:00PM 31.1979 121.3363 350° North  Level Estimated
01:01PM 31.1979 121.3363 350° North  Level Estimated
01:02PM 31.1979 121.3363 350° North  Level Estimated
01:03PM 31.1979 121.3363 350° North  Level Estimated
01:04PM 31.1979 121.3363 350° North  Level Estimated
01:05PM 31.1979 121.3363 350° North  Level Estimated
01:06PM 31.1979 121.3363 350° North  Level Estimated
01:07PM 31.1979 121.3363 350° North  Level Estimated
01:08PM 31.1979 121.3363 350° North  Level Estimated
01:09PM 31.1979 121.3363 350° North  Level Estimated
01:10PM 31.1979 121.3363 350° North  Level Estimated
01:11PM 31.1979 121.3363 350° North  Level Estimated
01:12PM 31.1979 121.3363 350° North  Level Estimated
01:13PM 31.1979 121.3363 350° North  Level Estimated
01:14PM 31.1979 121.3363 350° North  Level Estimated
01:15PM 31.1979 121.3363 350° North  Level Estimated
01:16PM 31.1979 121.3363 350° North  Level Estimated
01:17PM 31.1979 121.3363 350° North  Level Estimated
01:18PM 31.1979 121.3363 350° North  Level Estimated
01:19PM 31.1979 121.3363 350° North  Level Estimated
01:20PM 31.1979 121.3363 350° North  Level Estimated
01:21PM 31.1979 121.3363 350° North  Level Estimated
01:22PM 31.1979 121.3363 350° North  Level Estimated
01:23PM 31.1979 121.3363 350° North  Level Estimated
01:24PM 31.1979 121.3363 350° North  Level Estimated
01:25PM 31.1979 121.3363 350° North  Level Estimated
01:26PM 31.1979 121.3363 350° North  Level Estimated
01:27PM 31.1979 121.3363 350° North  Level Estimated
01:28PM 31.1979 121.3363 350° North  Level Estimated
01:29PM 31.1979 121.3363 350° North  Level Estimated
01:30PM 31.1979 121.3363 350° North  Level Estimated
01:31PM 31.1979 121.3363 350° North  Level Estimated
01:32PM 31.1979 121.3363 350° North  Level Estimated
01:33PM 31.1979 121.3363 350° North  Level Estimated
01:34PM 31.1979 121.3363 350° North  Level Estimated
01:35PM 31.1979 121.3363 350° North  Level Estimated
01:36PM 31.1979 121.3363 350° North  Level Estimated
01:37PM 31.1979 121.3363 350° North  Level Estimated
01:38PM 31.1979 121.3363 350° North  Level Estimated
01:39PM 31.1979 121.3363 350° North  Level Estimated
01:40PM 31.1979 121.3363 350° North  Level Estimated
01:41PM 31.1979 121.3363 350° North  Level Estimated
01:42PM 31.1979 121.3363 350° North  Level Estimated
01:43PM 31.1979 121.3363 350° North  Level Estimated
01:44PM 31.1979 121.3363 350° North  Level Estimated
01:45PM 31.1979 121.3363 350° North  Level Estimated
01:46PM 31.1979 121.3363 350° North  Level Estimated
01:47PM 31.1979 121.3363 350° North  Level Estimated
01:48PM 31.1979 121.3363 350° North  Level Estimated
01:49PM 31.1979 121.3363 350° North  Level Estimated
01:50PM 31.1979 121.3363 350° North  Level Estimated
01:51PM 31.1979 121.3363 350° North  Level Estimated
01:52PM 31.1979 121.3363 350° North  Level Estimated
01:53PM 31.1979 121.3363 350° North  Level Estimated
01:54PM 31.1979 121.3363 350° North  Level Estimated
01:55PM 31.1979 121.3363 350° North  Level Estimated
01:56PM 31.1979 121.3363 350° North  Level Estimated
01:57PM 31.1979 121.3363 350° North  Level Estimated
01:58PM 31.1979 121.3363 350° North  Level Estimated
01:59PM 31.1979 121.3363 350° North  Level Estimated
02:00PM 31.1979 121.3363 350° North  Level Estimated
02:01PM 31.1979 121.3363 350° North  Level Estimated
02:02PM 31.1979 121.3363 350° North  Level Estimated
02:03PM 31.1979 121.3363 350° North  Level Estimated
02:04PM 31.1979 121.3363 350° North  Level Estimated
02:05PM 31.1979 121.3363 350° North  Level Estimated
02:06PM 31.1979 121.3363 350° North  Level Estimated
02:07PM 31.1979 121.3363 350° North  Level Estimated
02:08PM 31.1979 121.3363 350° North  Level Estimated
02:09PM 31.1979 121.3363 350° North  Level Estimated
02:10PM 31.1979 121.3363 350° North  Level Estimated
02:11PM 31.1979 121.3363 350° North  Level Estimated
02:12PM 31.1979 121.3363 350° North  Level Estimated
02:13PM 31.1979 121.3363 350° North  Level Estimated
02:14PM 31.1979 121.3363 350° North  Level Estimated
02:15PM 31.1979 121.3363 350° North  Level Estimated
02:16PM 31.1979 121.3363 350° North  Level Estimated
02:17PM 31.1979 121.3363 350° North  Level Estimated
02:18PM 31.1979 121.3363 350° North  Level Estimated
02:19PM 31.1979 121.3363 350° North  Level Estimated
02:20PM 31.1979 121.3363 350° North  Level Estimated
02:21PM 31.1979 121.3363 350° North  Level Estimated
02:22PM 31.1979 121.3363 350° North  Level Estimated
02:23PM 31.1979 121.3363 350° North  Level Estimated
02:24PM 31.1979 121.3363 350° North  Level Estimated
02:25PM 31.1979 121.3363 350° North  Level Estimated
02:26PM 31.1979 121.3363 350° North  Level Estimated
02:27PM 31.1979 121.3363 350° North  Level Estimated
02:28PM 31.1979 121.3363 350° North  Level Estimated
02:29PM 31.1979 121.3363 350° North  Level Estimated
02:30PM 31.1979 121.3363 350° North  Level Estimated
02:31PM 31.1979 121.3363 350° North  Level Estimated
02:32PM 31.1979 121.3363 350° North  Level Estimated
02:33PM 31.1979 121.3363 350° North  Level Estimated
02:34PM 31.1979 121.3363 350° North  Level Estimated
02:35PM 31.1979 121.3363 350° North  Level Estimated
02:36PM 31.1979 121.3363 350° North  Level Estimated
02:37PM 31.1979 121.3363 350° North  Level Estimated
02:38PM 31.1979 121.3363 350° North  Level Estimated
02:39PM 31.1979 121.3363 350° North  Level Estimated
02:40PM 31.1979 121.3363 350° North  Level Estimated
02:41PM 31.1979 121.3363 350° North  Level Estimated
02:42PM 31.1979 121.3363 350° North  Level Estimated
02:43PM 31.1979 121.3363 350° North  Level Estimated
02:44PM 31.1979 121.3363 350° North  Level Estimated
02:45PM 31.1979 121.3363 350° North  Level Estimated
02:46PM 31.1979 121.3363 350° North  Level Estimated
02:47PM 31.1979 121.3363 350° North  Level Estimated
02:48PM 31.1979 121.3363 350° North  Level Estimated
02:49PM 31.1979 121.3363 350° North  Level Estimated
02:50PM 31.1979 121.3363 350° North  Level Estimated
02:51PM 31.1979 121.3363 350° North  Level Estimated
02:52PM 31.1979 121.3363 350° North  Level Estimated
02:53PM 31.1979 121.3363 350° North  Level Estimated
02:54PM 31.1979 121.3363 350° North  Level Estimated
02:55PM 31.1979 121.3363 350° North  Level Estimated
02:56PM 31.1979 121.3363 350° North  Level Estimated
02:57PM 31.1979 121.3363 350° North  Level Estimated
02:58PM 31.1979 121.3363 350° North  Level Estimated
02:59PM 31.1979 121.3363 350° North  Level Estimated
03:00PM 31.1979 121.3363 350° North  Level Estimated
03:01PM 31.1979 121.3363 350° North  Level Estimated
03:02PM 31.1979 121.3363 350° North  Level Estimated
03:03PM 31.1979 121.3363 350° North  Level Estimated
03:04PM 31.1979 121.3363 350° North  Level Estimated
03:05PM 31.1979 121.3363 350° North  Level Estimated
03:06PM 31.1979 121.3363 350° North  Level Estimated
03:07PM 31.1979 121.3363 350° North  Level Estimated
03:08PM 31.1979 121.3363 350° North  Level Estimated
03:09PM 31.1979 121.3363 350° North  Level Estimated
03:10PM 31.1979 121.3363 350° North  Level Estimated
03:11PM 31.1979 121.3363 350° North  Level Estimated
03:12PM 31.1979 121.3363 350° North  Level Estimated
03:13PM 31.1979 121.3363 350° North  Level Estimated
03:14PM 31.1979 121.3363 350° North  Level Estimated
03:15PM 31.1979 121.3363 350° North  Level Estimated
03:16PM 31.1979 121.3363 350° North  Level Estimated
03:17PM 31.1979 121.3363 350° North  Level Estimated
03:18PM 31.1979 121.3363 350° North  Level Estimated
03:19PM 31.1979 121.3363 350° North  Level Estimated
03:20PM 31.1979 121.3363 350° North  Level Estimated
03:21PM 31.1979 121.3363 350° North  Level Estimated
03:22PM 31.1979 121.3363 350° North  Level Estimated
03:23PM 31.1979 121.3363 350° North  Level Estimated
03:24PM 31.1979 121.3363 350° North  Level Estimated
03:25PM 31.1979 121.3363 350° North  Level Estimated
03:26PM 31.1979 121.3363 350° North  Level Estimated
03:27PM 31.1979 121.3363 350° North  Level Estimated
03:28PM 31.1979 121.3363 350° North  Level Estimated
03:29PM 31.1979 121.3363 350° North  Level Estimated
03:30PM 31.1979 121.3363 350° North  Level Estimated
03:31PM 31.1979 121.3363 350° North  Level Estimated
03:32PM 31.1979 121.3363 350° North  Level Estimated
03:33PM 31.1979 121.3363 350° North  Level Estimated
03:34PM 31.1979 121.3363 350° North  Level Estimated
03:35PM 31.1979 121.3363 350° North  Level Estimated
03:36PM 31.1979 121.3363 350° North  Level Estimated
03:37PM 31.1979 121.3363 350° North  Level Estimated
03:38PM 31.1979 121.3363 350° North  Level Estimated
03:39PM 31.1979 121.3363 350° North  Level Estimated
03:40PM 31.1979 121.3363 350° North  Level Estimated
03:41PM 31.1979 121.3363 350° North  Level Estimated
03:42PM 31.1979 121.3363 350° North  Level Estimated
03:43PM 31.1979 121.3363 350° North  Level Estimated
03:44PM 31.1979 121.3363 350° North  Level Estimated
03:45PM 31.1979 121.3363 350° North  Level Estimated
03:46PM 31.1979 121.3363 350° North  Level Estimated
03:47PM 31.1979 121.3363 350° North  Level Estimated
03:48PM 31.1979 121.3363 350° North  Level Estimated
03:49PM 31.1979 121.3363 350° North  Level Estimated
03:50PM 31.1979 121.3363 350° North  Level Estimated
03:51PM 31.1979 121.3363 350° North  Level Estimated
03:52PM 31.1979 121.3363 350° North  Level Estimated
03:53PM 31.1979 121.3363 350° North  Level Estimated
03:54PM 31.1979 121.3363 350° North  Level Estimated
03:55PM 31.1979 121.3363 350° North  Level Estimated
03:56PM 31.1979 121.3363 350° North  Level Estimated
03:57PM 31.1979 121.3363 350° North  Level Estimated
03:58PM 31.1979 121.3363 350° North  Level Estimated
03:59PM 31.1979 121.3363 350° North  Level Estimated
04:00PM 31.1979 121.3363 350° North  Level Estimated
04:01PM 31.1979 121.3363 350° North  Level Estimated
04:02PM 31.1979 121.3363 350° North  Level Estimated
04:03PM 31.1979 121.3363 350° North  Level Estimated
04:04PM 31.1979 121.3363 350° North  Level Estimated
04:05PM 31.1979 121.3363 350° North  Level Estimated
04:06PM 31.1979 121.3363 350° North  Level Estimated
04:07PM 31.1979 121.3363 350° North  Level Estimated
04:08PM 31.1979 121.3363 350° North  Level Estimated
04:09PM 31.1979 121.3363 350° North  Level Estimated
04:10PM 31.1979 121.3363 350° North  Level Estimated
04:11PM 31.1979 121.3363 350° North  Level Estimated
04:12PM 31.1979 121.3363 350° North  Level Estimated
04:13PM 31.1979 121.3363 350° North  Level Estimated
04:14PM 31.1979 121.3363 350° North  Level Estimated
04:15PM 31.1979 121.3363 350° North  Level Estimated
04:16PM 31.1979 121.3363 350° North  Level Estimated
04:17PM 31.1979 121.3363 350° North  Level Estimated
04:18PM 31.1979 121.3363 350° North  Level Estimated
04:19PM 31.1979 121.3363 350° North  Level Estimated
04:20PM 31.1979 121.3363 350° North  Level Estimated
04:21PM 31.1979 121.3363 350° North  Level Estimated
04:22PM 31.1979 121.3363 350° North  Level Estimated
04:23PM 31.1979 121.3363 350° North  Level Estimated
04:24PM 31.1979 121.3363 350° North  Level Estimated
04:25PM 31.1979 121.3363 350° North  Level Estimated
04:26PM 31.1979 121.3363 350° North  Level Estimated
04:27PM 31.1979 121.3363 350° North  Level Estimated
04:28PM 31.1979 121.3363 350° North  Level Estimated
04:29PM 31.1979 121.3363 350° North  Level Estimated
04:30PM 31.1979 121.3363 350° North  Level Estimated
04:31PM 31.1979 121.3363 350° North  Level Estimated
04:32PM 31.1979 121.3363 350° North  Level Estimated
04:33PM 31.1979 121.3363 350° North  Level Estimated
04:34PM 31.1979 121.3363 350° North  Level Estimated
04:35PM 31.1979 121.3363 350° North  Level Estimated
04:36PM 31.1979 121.3363 350° North  Level Estimated
04:37PM 31.1979 121.3363 350° North  Level Estimated
04:38PM 31.1979 121.3363 350° North  Level Estimated
04:39PM 31.1979 121.3363 350° North  Level Estimated
04:40PM 31.1979 121.3363 350° North  Level Estimated
04:41PM 31.1979 121.3363 350° North  Level Estimated
04:42PM 31.1979 121.3363 350° North  Level Estimated
04:43PM 31.1979 121.3363 350° North  Level Estimated
04:44PM 31.1979 121.3363 350° North  Level Estimated
04:45PM 31.1979 121.3363 350° North  Level Estimated
04:46PM 31.1979 121.3363 350° North  Level Estimated
04:47PM 31.1979 121.3363 350° North  Level Estimated
04:48PM 31.1979 121.3363 350° North  Level Estimated
04:49PM 31.1979 121.3363 350° North  Level Estimated
04:50PM 31.1979 121.3363 350° North  Level Estimated
04:51PM 31.1979 121.3363 350° North  Level Estimated
04:52PM 31.1979 121.3363 350° North  Level Estimated
04:53PM 31.1979 121.3363 350° North  Level Estimated
04:54PM 31.1979 121.3363 350° North  Level Estimated
04:55PM 31.1979 121.3363 350° North  Level Estimated
04:56PM 31.1979 121.3363 350° North  Level Estimated
04:57PM 31.1979 121.3363 350° North  Level Estimated
04:58PM 31.1979 121.3363 350° North  Level Estimated
04:59PM 31.1979 121.3363 350° North  Level Estimated
05:00PM 31.1979 121.3363 350° North  Level Estimated
05:01PM 31.1979 121.3363 350° North  Level Estimated
05:02PM 31.1979 121.3363 350° North  Level Estimated
05:03PM 31.1979 121.3363 350° North  Level Estimated
05:04PM 31.1979 121.3363 350° North  Level Estimated
05:05PM 31.1979 121.3363 350° North  Level Estimated
05:06PM 31.1979 121.3363 350° North  Level Estimated
05:07PM 31.1979 121.3363 350° North  Level Estimated
05:08PM 31.1979 121.3363 350° North  Level Estimated
05:09PM 31.1979 121.3363 350° North  Level Estimated
05:10PM 31.1979 121.3363 350° North  Level Estimated
05:11PM 31.1979 121.3363 350° North  Level Estimated
05:12PM 31.1979 121.3363 350° North  Level Estimated
05:13PM 31.1979 121.3363 350° North  Level Estimated
05:14PM 31.1979 121.3363 350° North  Level Estimated
05:15PM 31.1979 121.3363 350° North  Level Estimated
05:16PM 31.1979 121.3363 350° North  Level Estimated
05:17PM 31.1979 121.3363 350° North  Level Estimated
05:18PM 31.1979 121.3363 350° North  Level Estimated
05:19PM 31.1979 121.3363 350° North  Level Estimated
05:20PM 31.1979 121.3363 350° North  Level Estimated
05:21PM 31.1979 121.3363 350° North  Level Estimated
05:22PM 31.1979 121.3363 350° North  Level Estimated
05:23PM 31.1979 121.3363 350° North  Level Estimated
05:24PM 31.1979 121.3363 350° North  Level Estimated
05:25PM 31.1979 121.3363 350° North  Level Estimated
05:26PM 31.1979 121.3363 350° North  Level Estimated
05:27PM 31.1979 121.3363 350° North  Level Estimated
05:28PM 31.1979 121.3363 350° North  Level Estimated
05:29PM 31.1979 121.3363 350° North  Level Estimated
05:30PM 31.1979 121.3363 350° North  Level Estimated
05:31PM 31.1979 121.3363 350° North  Level Estimated
05:32PM 31.1979 121.3363 350° North  Level Estimated
05:33PM 31.1979 121.3363 350° North  Level Estimated
05:34PM 31.1979 121.3363 350° North  Level Estimated
05:35PM 31.1979 121.3363 350° North  Level Estimated
05:36PM 31.1979 121.3363 350° North  Level Estimated
05:37PM 31.1979 121.3363 350° North  Level Estimated
05:38PM 31.1979 121.3363 350° North  Level Estimated
05:39PM 31.1979 121.3363 350° North  Level Estimated
05:40PM 31.1979 121.3363 350° North  Level Estimated
05:41PM 31.1979 121.3363 350° North  Level Estimated
05:42PM 31.1979 121.3363 350° North  Level Estimated
05:43PM 31.1979 121.3363 350° North  Level Estimated
05:44PM 31.1979 121.3363 350° North  Level Estimated
05:45PM 31.1979 121.3363 350° North  Level Estimated
05:46PM 31.1979 121.3363 350° North  Level Estimated
05:47PM 31.1979 121.3363 350° North  Level Estimated
05:48PM 31.1979 121.3363 350° North  Level Estimated
05:49PM 31.1979 121.3363 350° North  Level Estimated
05:50PM 31.1979 121.3363 350° North  Level Estimated
05:51PM 31.1979 121.3363 350° North  Level Estimated
05:52PM 31.1979 121.3363 350° North  Level Estimated
05:53PM 31.1979 121.3363 350° North  Level Estimated
05:54PM 31.1979 121.3363 350° North  Level Estimated
05:55PM 31.1979 121.3363 350° North  Level Estimated
05:56PM 31.1979 121.3363 350° North  Level Estimated
05:57PM 31.1979 121.3363 350° North  Level Estimated
05:58PM 31.1979 121.3363 350° North  Level Estimated
05:59PM 31.1979 121.3363 350° North  Level Estimated
06:00PM 31.1979 121.3363 350° North  Level Estimated
06:01PM 31.1979 121.3363 350° North  Level Estimated
06:02PM 31.1979 121.3363 350° North  Level Estimated
06:03PM 31.1979 121.3363 350° North  Level Estimated
06:04PM 31.1979 121.3363 350° North  Level Estimated
06:05PM 31.1979 121.3363 350° North  Level Estimated
06:06PM 31.1979 121.3363 350° North  Level Estimated
06:07PM 31.1979 121.3363 350° North  Level Estimated
06:08PM 31.1979 121.3363 350° North  Level Estimated
06:09PM 31.1979 121.3363 350° North  Level Estimated
06:10PM 31.1979 121.3363 350° North  Level Estimated
06:11PM 31.1979 121.3363 350° North  Level Estimated
06:12PM 31.1979 121.3363 350° North  Level Estimated
06:13PM 31.1979 121.3363 350° North  Level Estimated
06:14PM 31.1979 121.3363 350° North  Level Estimated
06:15PM 31.1979 121.3363 350° North  Level Estimated
06:16PM 31.1979 121.3363 350° North  Level Estimated
06:17PM 31.1979 121.3363 350° North  Level Estimated
06:18PM 31.1979 121.3363 350° North  Level Estimated
06:19PM 31.1979 121.3363 350° North  Level Estimated
06:20PM 31.1979 121.3363 350° North  Level Estimated
06:21PM 31.1979 121.3363 350° North  Level Estimated
06:22PM 31.1979 121.3363 350° North  Level Estimated
06:23PM 31.1979 121.3363 350° North  Level Estimated
06:24PM 31.1979 121.3363 350° North  Level Estimated
06:25PM 31.1979 121.3363 350° North  Level Estimated
06:26PM 31.1979 121.3363 350° North  Level Estimated
06:27PM 31.1979 121.3363 350° North  Level Estimated
06:28PM 31.1979 121.3363 350° North  Level Estimated
06:29PM 31.1979 121.3363 350° North  Level Estimated
06:30PM 31.1979 121.3363 350° North  Level Estimated
06:31PM 31.1979 121.3363 350° North  Level Estimated
06:32PM 31.1979 121.3363 350° North  Level Estimated
06:33PM 31.1979 121.3363 350° North  Level Estimated
06:34PM 31.1979 121.3363 350° North  Level Estimated
06:35PM 31.1979 121.3363 350° North  Level Estimated
06:36PM 31.1979 121.3363 350° North  Level Estimated
06:37PM 31.1979 121.3363 350° North  Level Estimated
06:38PM 31.1979 121.3363 350° North  Level Estimated
06:39PM 31.1979 121.3363 350° North  Level Estimated
06:40PM 31.1979 121.3363 350° North  Level Estimated
06:41PM 31.1979 121.3363 350° North  Level Estimated
06:42PM 31.1979 121.3363 350° North  Level Estimated
06:43PM 31.1979 121.3363 350° North  Level Estimated
06:44PM 31.1979 121.3363 350° North  Level Estimated
06:45PM 31.1979 121.3363 350° North  Level Estimated
06:46PM 31.1979 121.3363 350° North  Level Estimated
06:47PM 31.1979 121.3363 350° North  Level Estimated
06:48PM 31.1979 121.3363 350° North  Level Estimated
06:49PM 31.1979 121.3363 350° North  Level Estimated
06:50PM 31.1979 121.3363 350° North  Level Estimated
06:51PM 31.1979 121.3363 350° North  Level Estimated
06:52PM 31.1979 121.3363 350° North  Level Estimated
06:53PM 31.1979 121.3363 350° North  Level Estimated
06:54PM 31.1979 121.3363 350° North  Level Estimated
06:55PM 31.1979 121.3363 350° North  Level Estimated
06:56PM 31.1979 121.3363 350° North  Level Estimated
06:57PM 31.1979 121.3363 350° North  Level Estimated
06:58PM 31.1979 121.3363 350° North  Level Estimated
06:59PM 31.1979 121.3363 350° North  Level Estimated
07:00PM 31.1979 121.3363 350° North  Level Estimated
07:01PM 31.1979 121.3363 350° North  Level Estimated
07:02PM 31.1979 121.3363 350° North  Level Estimated
07:03PM 31.1979 121.3363 350° North  Level Estimated
07:04PM 31.1979 121.3363 350° North  Level Estimated
07:05PM 31.1979 121.3363 350° North  Level Estimated
07:06PM 31.1979 121.3363 350° North  Level Estimated
07:07PM 31.1979 121.3363 350° North  Level Estimated
07:08PM 31.1979 121.3363 350° North  Level Estimated
07:09PM 31.1979 121.3363 350° North  Level Estimated
07:10PM 31.1979 121.3363 350° North  Level Estimated
07:11PM 31.1979 121.3363 350° North  Level Estimated
07:12PM 31.1979 121.3363 350° North  Level Estimated
07:13PM 31.1979 121.3363 350° North  Level Estimated
07:14PM 31.1979 121.3363 350° North  Level Estimated
07:15PM 31.1979 121.3363 350° North  Level Estimated
07:16PM 31.1979 121.3363 350° North  Level Estimated
07:17PM 31.1979 121.3363 350° North  Level Estimated
07:18PM 31.1979 121.3363 350° North  Level Estimated
07:19PM 31.1979 121.3363 350° North  Level Estimated
07:20PM 31.1979 121.3363 350° North  Level Estimated
07:21PM 31.1979 121.3363 350° North  Level Estimated
07:22PM 31.1979 121.3363 350° North  Level Estimated
07:23PM 31.1979 121.3363 350° North  Level Estimated
07:24PM 31.1979 121.3363 350° North  Level Estimated
07:25PM 31.1979 121.3363 350° North  Level Estimated
07:26PM 31.1979 121.3363 350° North  Level Estimated
07:27PM 31.1979 121.3363 350° North  Level Estimated
07:28PM 31.1979 121.3363 350° North  Level Estimated
07:29PM 31.1979 121.3363 350° North  Level Estimated
07:30PM 31.1979 121.3363 350° North  Level Estimated
07:31PM 31.1979 121.3363 350° North  Level Estimated
07:32PM 31.1979 121.3363 350° North  Level Estimated
07:33PM 31.1979 121.3363 350° North  Level Estimated
07:34PM 31.1979 121.3363 350° North  Level Estimated
07:35PM 31.1979 121.3363 350° North  Level Estimated
07:36PM 31.1979 121.3363 350° North  Level Estimated
07:37PM 31.1979 121.3363 350° North  Level Estimated
07:38PM 31.1979 121.3363 350° North  Level Estimated
07:39PM 31.1979 121.3363 350° North  Level Estimated
07:40PM 31.1979 121.3363 350° North  Level Estimated
07:41PM 31.1979 121.3363 350° North  Level Estimated
07:42PM 31.1979 121.3363 350° North  Level Estimated
07:43PM 31.1979 121.3363 350° North  Level Estimated
07:44PM 31.1979 121.3363 350° North  Level Estimated
07:45PM 31.1979 121.3363 350° North  Level Estimated
07:46PM 31.1979 121.3363 350° North  Level Estimated
07:47PM 31.1979 121.3363 350° North  Level Estimated
07:48PM 31.1979 121.3363 350° North  Level Estimated
07:49PM 31.1979 121.3363 350° North  Level Estimated
07:50PM 31.1979 121.3363 350° North  Level Estimated
07:51PM 31.1979 121.3363 350° North  Level Estimated
07:52PM 31.1979 121.3363 350° North  Level Estimated
07:53PM 31.1979 121.3363 350° North  Level Estimated
07:54PM 31.1979 121.3363 350° North  Level Estimated
07:55PM 31.1979 121.3363 350° North  Level Estimated
07:56PM 31.1979 121.3363 350° North  Level Estimated
07:57PM 31.1979 121.3363 350° North  Level Estimated
07:58PM 31.1979 121.3363 350° North  Level Estimated
07:59PM 31.1979 121.3363 350° North  Level Estimated
08:00PM 31.1979 121.3363 350° North  Level Estimated
08:01PM 31.1979 121.3363 350° North  Level Estimated
08:02PM 31.1979 121.3363 350° North  Level Estimated
08:03PM 31.1979 121.3363 350° North  Level Estimated
08:04PM 31.1979 121.3363 350° North  Level Estimated
08:05PM 31.1979 121.3363 350° North  Level Estimated
08:06PM 31.1979 121.3363 350° North  Level Estimated
08:07PM 31.1979 121.3363 350° North  Level Estimated
08:08PM 31.1979 121.3363 350° North  Level Estimated
08:09PM 31.1979 121.3363 350° North  Level Estimated
08:10PM 31.1979 121.3363 350° North  Level Estimated
08:11PM 31.1979 121.3363 350° North  Level Estimated
08:12PM 31.1979 121.3363 350° North  Level Estimated
08:13PM 31.1979 121.3363 350° North  Level Estimated
08:14PM 31.1979 121.3363 350° North  Level Estimated
08:15PM 31.1979 121.3363 350° North  Level Estimated
08:16PM 31.1979 121.3363 350° North  Level Estimated
08:17PM 31.1979 121.3363 350° North  Level Estimated
08:18PM 31.1979 121.3363 350° North  Level Estimated
08:19PM 31.1979 121.3363 350° North  Level Estimated
08:20PM 31.1979 121.3363 350° North  Level Estimated
08:21PM 31.1979 121.3363 350° North  Level Estimated
08:22PM 31.1979 121.3363 350° North  Level Estimated
08:23PM 31.1979 121.3363 350° North  Level Estimated
08:24PM 31.1979 121.3363 350° North  Level Estimated
08:25PM 31.1979 121.3363 350° North  Level Estimated
08:26PM 31.1979 121.3363 350° North  Level Estimated
08:27PM 31.1979 121.3363 350° North  Level Estimated
08:28PM 31.1979 121.3363 350° North  Level Estimated
08:29PM 31.1979 121.3363 350° North  Level Estimated
08:30PM 31.1979 121.3363 350° North  Level Estimated
08:31PM 31.1979 121.3363 350° North  Level Estimated
08:32PM 31.1979 121.3363 350° North  Level Estimated
08:33PM 31.1979 121.3363 350° North  Level Estimated
08:34PM 31.1979 121.3363 350° North  Level Estimated
08:35PM 31.1979 121.3363 350° North  Level Estimated
08:36PM 31.1979 121.3363 350° North  Level Estimated
08:37PM 31.1979 121.3363 350° North  Level Estimated
08:38PM 31.1979 121.3363 350° North  Level Estimated
08:39PM 31.1979 121.3363 350° North  Level Estimated
08:40PM 31.1979 121.3363 350° North  Level Estimated
08:41PM 31.1979 121.3363 350° North  Level Estimated
08:42PM 31.1979 121.3363 350° North  Level Estimated
08:43PM 31.1979 121.3363 350° North  Level Estimated
08:44PM 31.1979 121.3363 350° North  Level Estimated
08:45PM 31.1979 121.3363 350° North  Level Estimated
08:46PM 31.1979 121.3363 350° North  Level Estimated
08:47PM 31.1979 121.3363 350° North  Level Estimated
08:48PM 31.1979 121.3363 350° North  Level Estimated
08:49PM 31.1979 121.3363 350° North  Level Estimated
08:50PM 31.1979 121.3363 350° North  Level Estimated
08:51PM 31.1979 121.3363 350° North  Level Estimated
08:52PM 31.1979 121.3363 350° North  Level Estimated
08:53PM 31.1979 121.3363 350° North  Level Estimated
08:54PM 31.1979 121.3363 350° North  Level Estimated
08:55PM 31.1979 121.3363 350° North  Level Estimated
08:56PM 31.1979 121.3363 350° North  Level Estimated
08:57PM 31.1979 121.3363 350° North  Level Estimated
08:58PM 31.1979 121.3363 350° North  Level Estimated
08:59PM 31.1979 121.3363 350° North  Level Estimated
09:00PM 31.1979 121.3363 350° North  Level Estimated
09:01PM 31.1979 121.3363 350° North  Level Estimated
09:02PM 31.1979 121.3363 350° North  Level Estimated
09:03PM 31.1979 121.3363 350° North  Level Estimated
09:04PM 31.1979 121.3363 350° North  Level Estimated
09:05PM 31.1979 121.3363 350° North  Level Estimated
09:06PM 31.1979 121.3363 350° North  Level Estimated
09:07PM 31.1979 121.3363 350° North  Level Estimated
09:08PM 31.1979 121.3363 350° North  Level Estimated
09:09PM 31.1979 121.3363 350° North  Level Estimated
09:10PM 31.1979 121.3363 350° North  Level Estimated
09:11PM 31.1979 121.3363 350° North  Level Estimated
09:12PM 31.1979 121.3363 350° North  Level Estimated
09:13PM 31.1979 121.3363 350° North  Level Estimated
09:14PM 31.1979 121.3363 350° North  Level Estimated
09:15PM 31.1979 121.3363 350° North  Level Estimated
09:16PM 31.1979 121.3363 350° North  Level Estimated
09:17PM 31.1979 121.3363 350° North  Level Estimated
09:18PM 31.1979 121.3363 350° North  Level Estimated
09:19PM 31.1979 121.3363 350° North  Level Estimated
09:20PM 31.1979 121.3363 350° North  Level Estimated
09:21PM 31.1979 121.3363 350° North  Level Estimated
09:22PM 31.1979 121.3363 350° North  Level Estimated
09:23PM 31.1979 121.3363 350° North  Level Estimated
09:24PM 31.1979 121.3363 350° North  Level Estimated
09:25PM 31.1979 121.3363 350° North  Level Estimated
09:26PM 31.1979 121.3363 350° North  Level Estimated
09:27PM 31.1979 121.3363 350° North  Level Estimated
09:28PM 31.1979 121.3363 350° North  Level Estimated
09:29PM 31.1979 121.3363 350° North  Level Estimated
09:30PM 31.1979 121.3363 350° North  Level Estimated
09:31PM 31.1979 121.3363 350° North  Level Estimated
09:32PM 31.1979 121.3363 350° North  Level Estimated
09:33PM 31.1979 121.3363 350° North  Level Estimated
09:34PM 31.1979 121.3363 350° North  Level Estimated
09:35PM 31.1979 121.3363 350° North  Level Estimated
09:36PM 31.1979 121.3363 350° North  Level Estimated
09:37PM 31.1979 121.3363 350° North  Level Estimated
09:38PM 31.1979 121.3363 350° North  Level Estimated
09:39PM 31.1979 121.3363 350° North  Level Estimated
09:40PM 31.1979 121.3363 350° North  Level Estimated
09:41PM 31.1979 121.3363 350° North  Level Estimated
09:42PM 31.1979 121.3363 350° North  Level Estimated
09:43PM 31.1979 121.3363 350° North  Level Estimated
09:44PM 31.1979 121.3363 350° North  Level Estimated
09:45PM 31.1979 121.3363 350° North  Level Estimated
09:46PM 31.1979 121.3363 350° North  Level Estimated
09:47PM 31.1979 121.3363 350° North  Level Estimated
09:48PM 31.1979 121.3363 350° North  Level Estimated
09:49PM 31.1979 121.3363 350° North  Level Estimated
09:50PM 31.1979 121.3363 350° North  Level Estimated
09:51PM 31.1979 121.3363 350° North  Level Estimated
09:52PM 31.1979 121.3363 350° North  Level Estimated
09:53PM 31.1979 121.3363 350° North  Level Estimated
09:54PM 31.1979 121.3363 350° North  Level Estimated
09:55PM 31.1979 121.3363 350° North  Level Estimated
09:56PM 31.1979 121.3363 350° North  Level Estimated
09:57PM 31.1979 121.3363 350° North  Level Estimated
09:58PM 31.1979 121.3363 350° North  Level Estimated
09:59PM 31.1979 121.3363 350° North  Level Estimated
10:00PM 31.1979 121.3363 350° North  Level Estimated
10:01PM 31.1979 121.3363 350° North  Level Estimated
10:02PM 31.1979 121.3363 350° North  Level Estimated
10:03PM 31.1979 121.3363 350° North  Level Estimated
10:04PM 31.1979 121.3363 350° North  Level Estimated
10:05PM 31.1979 121.3363 350° North  Level Estimated
10:06PM 31.1979 121.3363 350° North  Level Estimated
10:07PM 31.1979 121.3363 350° North  Level Estimated
10:08PM 31.1979 121.3363 350° North  Level Estimated
10:09PM 31.1979 121.3363 350° North  Level Estimated
10:10PM 31.1979 121.3363 350° North  Level Estimated
10:11PM 31.1979 121.3363 350° North  Level Estimated
10:12PM 31.1979 121.3363 350° North  Level Estimated
10:13PM 31.1979 121.3363 350° North  Level Estimated
10:14PM 31.1979 121.3363 350° North  Level Estimated
10:15PM 31.1979 121.3363 350° North  Level Estimated
10:16PM 31.1979 121.3363 350° North  Level Estimated
10:17PM 31.1979 121.3363 350° North  Level Estimated
10:18PM 31.1979 121.3363 350° North  Level Estimated
10:19PM 31.1979 121.3363 350° North  Level Estimated
10:20PM 31.1979 121.3363 350° North  Level Estimated
10:21PM 31.1979 121.3363 350° North  Level Estimated
10:22PM 31.1979 121.3363 350° North  Level Estimated
10:23PM 31.1979 121.3363 350° North  Level Estimated
10:24PM 31.1979 121.3363 350° North  Level Estimated
10:25PM 31.1979 121.3363 350° North  Level Estimated
10:26PM 31.1979 121.3363 350° North  Level Estimated
10:27PM 31.1979 121.3363 350° North  Level Estimated
10:28PM 31.1979 121.3363 350° North  Level Estimated
10:29PM 31.1979 121.3363 350° North  Level Estimated
10:30PM 31.1979 121.3363 350° North  Level Estimated
10:30PM 31.3392 121.1510 350° North 6,400  Level FlightAware ADS-B (ZSSS / SHA)
10:31PM 31.1979 121.3363 350° North  Level Estimated
10:31PM 31.3306 121.1792 110° East 6,400  Level FlightAware ADS-B (ZSSS / SHA)
10:31PM 31.3188 121.2067 117° Southeast 6,400  Level FlightAware ADS-B (ZSSS / SHA)
10:31PM 31.2959 121.2218 151° Southeast 6,400  Level FlightAware ADS-B (ZSSS / SHA)
10:32PM 31.2696 121.2233 177° South 244 281 6,400 -180 Level FlightAware ADS-B (ZSSS / SHA)
10:32PM 31.2503 121.2237 179° South 289 333 6,300 -600 Descending FlightAware ADS-B (ZSSS / SHA)
10:32PM 31.2309 121.2242 179° South 288 331 6,100 -600 Descending FlightAware ADS-B (ZSSS / SHA)
10:32PM 31.2122 121.2250 178° South 282 325 6,000 -660 Descending FlightAware ADS-B (ZSSS / SHA)
10:33PM 31.1941 121.2257 178° South 281 323 5,800 -720 Descending FlightAware ADS-B (ZSSS / SHA)
10:33PM 31.1722 121.2271 177° South 290 334 5,600 -720 Descending FlightAware ADS-B (ZSSS / SHA)
10:33PM 31.1569 121.2281 177° South 265 305 5,400 -840 Descending FlightAware ADS-B (ZSSS / SHA)
10:33PM 31.1421 121.2290 177° South 294 338 5,200 -1,020 Descending FlightAware ADS-B (ZSSS / SHA)
10:34PM 31.1243 121.2298 178° South 260 299 4,900 -1,380 Descending FlightAware ADS-B (ZSSS / SHA)
10:34PM 31.1098 121.2305 178° South 271 312 4,500 -1,200 Descending FlightAware ADS-B (ZSSS / SHA)
10:34PM 31.0925 121.2314 178° South 242 278 4,300 -1,200 Descending FlightAware ADS-B (ZSSS / SHA)
10:34PM 31.0771 121.2321 178° South 218 251 3,900 -1,500 Descending FlightAware ADS-B (ZSSS / SHA)
10:35PM 31.0616 121.2329 177° South 227 261 3,600 -1,020 Descending FlightAware ADS-B (ZSSS / SHA)
10:35PM 31.0489 121.2336 177° South 171 197 3,400 -600 Descending FlightAware ADS-B (ZSSS / SHA)
10:35PM 31.0362 121.2345 177° South 263 303 3,300 -660 Descending FlightAware ADS-B (ZSSS / SHA)
10:35PM 31.0189 121.2369 173° South 213 245 3,100 -1,080 Descending FlightAware ADS-B (ZSSS / SHA)
10:36PM 31.0101 121.2434 147° Southeast 226 260 2,800 -1,200 Descending FlightAware ADS-B (ZSSS / SHA)
10:36PM 31.0043 121.2607 112° Southeast 200 230 2,500 -1,140 Descending FlightAware ADS-B (ZSSS / SHA)
10:38PM 31.0149 121.2649 18° North  Level Estimated
10:39PM 31.0218 121.2675 18° North  Level Estimated
10:40PM 31.0287 121.2702 18° North  Level Estimated
10:41PM 31.0356 121.2729 18° North  Level Estimated
10:42PM 31.0424 121.2756 18° North  Level Estimated
10:43PM 31.0493 121.2783 18° North  Level Estimated
10:44PM 31.0562 121.2810 18° North  Level Estimated
10:45PM 31.0631 121.2836 18° North  Level Estimated
10:46PM 31.0700 121.2863 18° North  Level Estimated